<?xml version="1.0" encoding="UTF-8" standalone="no" ?>
<gpx xmlns="http://www.topografix.com/GPX/1/1" xmlns:xsi="http://www.w3.org/2001/XMLSchema-instance" xsi:schemaLocation="http://www.topografix.com/GPX/1/1 http://www.topografix.com/GPX/1/1/gpx.xsd" version="1.1" creator="VisuGPX - https://www.visugpx.com">
  <metadata>
    <name>Theoules sur mer</name>
    <desc><![CDATA[Tour sympa et technique ds l\'esterel]]></desc>
  </metadata>
  <trk>
    <name><![CDATA[20111111]]></name>
    <trkseg>
      <trkpt lat="43.50577" lon="6.93738">
        <ele>139</ele>
        <time>2011-11-11T14:28:56Z</time>
      </trkpt>
      <trkpt lat="43.50679" lon="6.93746">
        <ele>48</ele>
        <time>2011-11-11T14:29:07Z</time>
      </trkpt>
      <trkpt lat="43.50669" lon="6.93731">
        <ele>48</ele>
        <time>2011-11-11T14:29:17Z</time>
      </trkpt>
      <trkpt lat="43.50658" lon="6.93715">
        <ele>48</ele>
        <time>2011-11-11T14:29:28Z</time>
      </trkpt>
      <trkpt lat="43.50646" lon="6.93704">
        <ele>49</ele>
        <time>2011-11-11T14:29:38Z</time>
      </trkpt>
      <trkpt lat="43.50636" lon="6.93693">
        <ele>52</ele>
        <time>2011-11-11T14:29:48Z</time>
      </trkpt>
      <trkpt lat="43.50625" lon="6.93684">
        <ele>62</ele>
        <time>2011-11-11T14:29:58Z</time>
      </trkpt>
      <trkpt lat="43.50612" lon="6.93669">
        <ele>65</ele>
        <time>2011-11-11T14:30:09Z</time>
      </trkpt>
      <trkpt lat="43.50598" lon="6.93665">
        <ele>73</ele>
        <time>2011-11-11T14:30:19Z</time>
      </trkpt>
      <trkpt lat="43.50582" lon="6.9366">
        <ele>77</ele>
        <time>2011-11-11T14:30:29Z</time>
      </trkpt>
      <trkpt lat="43.50566" lon="6.93652">
        <ele>77</ele>
        <time>2011-11-11T14:30:39Z</time>
      </trkpt>
      <trkpt lat="43.50551" lon="6.93648">
        <ele>73</ele>
        <time>2011-11-11T14:30:50Z</time>
      </trkpt>
      <trkpt lat="43.50553" lon="6.93636">
        <ele>72</ele>
        <time>2011-11-11T14:31:00Z</time>
      </trkpt>
      <trkpt lat="43.50565" lon="6.93624">
        <ele>71</ele>
        <time>2011-11-11T14:31:10Z</time>
      </trkpt>
      <trkpt lat="43.50575" lon="6.93614">
        <ele>71</ele>
        <time>2011-11-11T14:31:20Z</time>
      </trkpt>
      <trkpt lat="43.50588" lon="6.93608">
        <ele>73</ele>
        <time>2011-11-11T14:31:30Z</time>
      </trkpt>
      <trkpt lat="43.50596" lon="6.93604">
        <ele>74</ele>
        <time>2011-11-11T14:31:41Z</time>
      </trkpt>
      <trkpt lat="43.50585" lon="6.93599">
        <ele>74</ele>
        <time>2011-11-11T14:31:52Z</time>
      </trkpt>
      <trkpt lat="43.5059" lon="6.93606">
        <ele>76</ele>
        <time>2011-11-11T14:32:08Z</time>
      </trkpt>
      <trkpt lat="43.50586" lon="6.93605">
        <ele>76</ele>
        <time>2011-11-11T14:32:19Z</time>
      </trkpt>
      <trkpt lat="43.50588" lon="6.93604">
        <ele>76</ele>
        <time>2011-11-11T14:32:30Z</time>
      </trkpt>
      <trkpt lat="43.50585" lon="6.93603">
        <ele>74</ele>
        <time>2011-11-11T14:32:40Z</time>
      </trkpt>
      <trkpt lat="43.50586" lon="6.936">
        <ele>74</ele>
        <time>2011-11-11T14:33:00Z</time>
      </trkpt>
      <trkpt lat="43.50583" lon="6.93594">
        <ele>74</ele>
        <time>2011-11-11T14:33:10Z</time>
      </trkpt>
      <trkpt lat="43.5057" lon="6.93586">
        <ele>72</ele>
        <time>2011-11-11T14:33:20Z</time>
      </trkpt>
      <trkpt lat="43.50555" lon="6.93585">
        <ele>69</ele>
        <time>2011-11-11T14:33:30Z</time>
      </trkpt>
      <trkpt lat="43.5054" lon="6.9358">
        <ele>68</ele>
        <time>2011-11-11T14:33:40Z</time>
      </trkpt>
      <trkpt lat="43.50526" lon="6.93577">
        <ele>68</ele>
        <time>2011-11-11T14:33:50Z</time>
      </trkpt>
      <trkpt lat="43.50514" lon="6.9357">
        <ele>70</ele>
        <time>2011-11-11T14:34:00Z</time>
      </trkpt>
      <trkpt lat="43.50499" lon="6.93556">
        <ele>74</ele>
        <time>2011-11-11T14:34:10Z</time>
      </trkpt>
      <trkpt lat="43.50484" lon="6.93541">
        <ele>76</ele>
        <time>2011-11-11T14:34:20Z</time>
      </trkpt>
      <trkpt lat="43.50469" lon="6.93529">
        <ele>77</ele>
        <time>2011-11-11T14:34:30Z</time>
      </trkpt>
      <trkpt lat="43.50459" lon="6.93522">
        <ele>77</ele>
        <time>2011-11-11T14:34:40Z</time>
      </trkpt>
      <trkpt lat="43.50449" lon="6.93519">
        <ele>78</ele>
        <time>2011-11-11T14:34:50Z</time>
      </trkpt>
      <trkpt lat="43.50436" lon="6.93514">
        <ele>80</ele>
        <time>2011-11-11T14:35:01Z</time>
      </trkpt>
      <trkpt lat="43.50422" lon="6.93506">
        <ele>81</ele>
        <time>2011-11-11T14:35:11Z</time>
      </trkpt>
      <trkpt lat="43.50406" lon="6.93496">
        <ele>82</ele>
        <time>2011-11-11T14:35:21Z</time>
      </trkpt>
      <trkpt lat="43.50392" lon="6.93487">
        <ele>83</ele>
        <time>2011-11-11T14:35:32Z</time>
      </trkpt>
      <trkpt lat="43.50382" lon="6.93471">
        <ele>87</ele>
        <time>2011-11-11T14:35:42Z</time>
      </trkpt>
      <trkpt lat="43.50372" lon="6.93455">
        <ele>91</ele>
        <time>2011-11-11T14:35:52Z</time>
      </trkpt>
      <trkpt lat="43.50363" lon="6.93437">
        <ele>95</ele>
        <time>2011-11-11T14:36:02Z</time>
      </trkpt>
      <trkpt lat="43.50355" lon="6.93417">
        <ele>96</ele>
        <time>2011-11-11T14:36:12Z</time>
      </trkpt>
      <trkpt lat="43.50346" lon="6.93398">
        <ele>96</ele>
        <time>2011-11-11T14:36:22Z</time>
      </trkpt>
      <trkpt lat="43.50339" lon="6.93381">
        <ele>97</ele>
        <time>2011-11-11T14:36:32Z</time>
      </trkpt>
      <trkpt lat="43.50333" lon="6.93367">
        <ele>99</ele>
        <time>2011-11-11T14:36:42Z</time>
      </trkpt>
      <trkpt lat="43.50328" lon="6.9335">
        <ele>100</ele>
        <time>2011-11-11T14:36:52Z</time>
      </trkpt>
      <trkpt lat="43.50324" lon="6.9333">
        <ele>101</ele>
        <time>2011-11-11T14:37:02Z</time>
      </trkpt>
      <trkpt lat="43.50314" lon="6.93314">
        <ele>101</ele>
        <time>2011-11-11T14:37:12Z</time>
      </trkpt>
      <trkpt lat="43.50307" lon="6.93299">
        <ele>103</ele>
        <time>2011-11-11T14:37:23Z</time>
      </trkpt>
      <trkpt lat="43.50302" lon="6.93285">
        <ele>106</ele>
        <time>2011-11-11T14:37:33Z</time>
      </trkpt>
      <trkpt lat="43.50292" lon="6.9327">
        <ele>105</ele>
        <time>2011-11-11T14:37:43Z</time>
      </trkpt>
      <trkpt lat="43.50285" lon="6.93254">
        <ele>101</ele>
        <time>2011-11-11T14:37:53Z</time>
      </trkpt>
      <trkpt lat="43.50277" lon="6.93243">
        <ele>101</ele>
        <time>2011-11-11T14:38:03Z</time>
      </trkpt>
      <trkpt lat="43.50271" lon="6.93229">
        <ele>103</ele>
        <time>2011-11-11T14:38:13Z</time>
      </trkpt>
      <trkpt lat="43.50265" lon="6.93214">
        <ele>105</ele>
        <time>2011-11-11T14:38:23Z</time>
      </trkpt>
      <trkpt lat="43.50261" lon="6.93202">
        <ele>109</ele>
        <time>2011-11-11T14:38:34Z</time>
      </trkpt>
      <trkpt lat="43.50256" lon="6.93187">
        <ele>112</ele>
        <time>2011-11-11T14:38:45Z</time>
      </trkpt>
      <trkpt lat="43.50254" lon="6.93181">
        <ele>114</ele>
        <time>2011-11-11T14:38:57Z</time>
      </trkpt>
      <trkpt lat="43.50266" lon="6.93177">
        <ele>119</ele>
        <time>2011-11-11T14:39:07Z</time>
      </trkpt>
      <trkpt lat="43.50278" lon="6.93172">
        <ele>120</ele>
        <time>2011-11-11T14:39:17Z</time>
      </trkpt>
      <trkpt lat="43.50291" lon="6.9317">
        <ele>127</ele>
        <time>2011-11-11T14:39:27Z</time>
      </trkpt>
      <trkpt lat="43.50303" lon="6.9316">
        <ele>129</ele>
        <time>2011-11-11T14:39:37Z</time>
      </trkpt>
      <trkpt lat="43.50316" lon="6.93154">
        <ele>129</ele>
        <time>2011-11-11T14:39:48Z</time>
      </trkpt>
      <trkpt lat="43.50329" lon="6.93148">
        <ele>129</ele>
        <time>2011-11-11T14:39:58Z</time>
      </trkpt>
      <trkpt lat="43.50341" lon="6.93143">
        <ele>129</ele>
        <time>2011-11-11T14:40:08Z</time>
      </trkpt>
      <trkpt lat="43.50354" lon="6.9314">
        <ele>129</ele>
        <time>2011-11-11T14:40:18Z</time>
      </trkpt>
      <trkpt lat="43.50363" lon="6.93134">
        <ele>129</ele>
        <time>2011-11-11T14:40:28Z</time>
      </trkpt>
      <trkpt lat="43.50363" lon="6.93132">
        <ele>133</ele>
        <time>2011-11-11T14:40:30Z</time>
      </trkpt>
      <trkpt lat="43.50366" lon="6.93132">
        <ele>133</ele>
        <time>2011-11-11T14:40:42Z</time>
      </trkpt>
      <trkpt lat="43.50369" lon="6.93134">
        <ele>133</ele>
        <time>2011-11-11T14:40:57Z</time>
      </trkpt>
      <trkpt lat="43.50368" lon="6.93133">
        <ele>133</ele>
        <time>2011-11-11T14:41:08Z</time>
      </trkpt>
      <trkpt lat="43.50368" lon="6.93128">
        <ele>135</ele>
        <time>2011-11-11T14:41:19Z</time>
      </trkpt>
      <trkpt lat="43.50368" lon="6.93126">
        <ele>135</ele>
        <time>2011-11-11T14:41:29Z</time>
      </trkpt>
      <trkpt lat="43.5037" lon="6.93126">
        <ele>135</ele>
        <time>2011-11-11T14:41:41Z</time>
      </trkpt>
      <trkpt lat="43.50373" lon="6.93126">
        <ele>141</ele>
        <time>2011-11-11T14:41:52Z</time>
      </trkpt>
      <trkpt lat="43.50373" lon="6.93127">
        <ele>143</ele>
        <time>2011-11-11T14:42:05Z</time>
      </trkpt>
      <trkpt lat="43.50372" lon="6.93126">
        <ele>143</ele>
        <time>2011-11-11T14:42:15Z</time>
      </trkpt>
      <trkpt lat="43.50371" lon="6.93125">
        <ele>138</ele>
        <time>2011-11-11T14:42:25Z</time>
      </trkpt>
      <trkpt lat="43.50367" lon="6.93119">
        <ele>135</ele>
        <time>2011-11-11T14:42:36Z</time>
      </trkpt>
      <trkpt lat="43.50364" lon="6.93116">
        <ele>134</ele>
        <time>2011-11-11T14:42:46Z</time>
      </trkpt>
      <trkpt lat="43.50354" lon="6.93107">
        <ele>134</ele>
        <time>2011-11-11T14:42:56Z</time>
      </trkpt>
      <trkpt lat="43.5034" lon="6.93104">
        <ele>134</ele>
        <time>2011-11-11T14:43:06Z</time>
      </trkpt>
      <trkpt lat="43.50327" lon="6.93096">
        <ele>134</ele>
        <time>2011-11-11T14:43:16Z</time>
      </trkpt>
      <trkpt lat="43.50314" lon="6.93087">
        <ele>134</ele>
        <time>2011-11-11T14:43:26Z</time>
      </trkpt>
      <trkpt lat="43.50302" lon="6.93075">
        <ele>135</ele>
        <time>2011-11-11T14:43:37Z</time>
      </trkpt>
      <trkpt lat="43.50292" lon="6.93063">
        <ele>136</ele>
        <time>2011-11-11T14:43:47Z</time>
      </trkpt>
      <trkpt lat="43.50282" lon="6.93047">
        <ele>138</ele>
        <time>2011-11-11T14:43:57Z</time>
      </trkpt>
      <trkpt lat="43.50273" lon="6.9303">
        <ele>138</ele>
        <time>2011-11-11T14:44:07Z</time>
      </trkpt>
      <trkpt lat="43.50267" lon="6.93012">
        <ele>138</ele>
        <time>2011-11-11T14:44:17Z</time>
      </trkpt>
      <trkpt lat="43.50266" lon="6.92992">
        <ele>141</ele>
        <time>2011-11-11T14:44:28Z</time>
      </trkpt>
      <trkpt lat="43.50271" lon="6.92971">
        <ele>145</ele>
        <time>2011-11-11T14:44:40Z</time>
      </trkpt>
      <trkpt lat="43.50281" lon="6.92949">
        <ele>147</ele>
        <time>2011-11-11T14:44:51Z</time>
      </trkpt>
      <trkpt lat="43.50291" lon="6.92935">
        <ele>151</ele>
        <time>2011-11-11T14:45:01Z</time>
      </trkpt>
      <trkpt lat="43.50292" lon="6.92927">
        <ele>155</ele>
        <time>2011-11-11T14:45:15Z</time>
      </trkpt>
      <trkpt lat="43.50293" lon="6.92929">
        <ele>162</ele>
        <time>2011-11-11T14:45:29Z</time>
      </trkpt>
      <trkpt lat="43.50294" lon="6.92928">
        <ele>165</ele>
        <time>2011-11-11T14:45:45Z</time>
      </trkpt>
      <trkpt lat="43.50297" lon="6.92927">
        <ele>165</ele>
        <time>2011-11-11T14:45:59Z</time>
      </trkpt>
      <trkpt lat="43.5029" lon="6.9291">
        <ele>165</ele>
        <time>2011-11-11T14:46:10Z</time>
      </trkpt>
      <trkpt lat="43.50275" lon="6.92866">
        <ele>162</ele>
        <time>2011-11-11T14:46:20Z</time>
      </trkpt>
      <trkpt lat="43.5025" lon="6.92796">
        <ele>151</ele>
        <time>2011-11-11T14:46:31Z</time>
      </trkpt>
      <trkpt lat="43.5024" lon="6.92754">
        <ele>145</ele>
        <time>2011-11-11T14:46:41Z</time>
      </trkpt>
      <trkpt lat="43.50234" lon="6.92719">
        <ele>145</ele>
        <time>2011-11-11T14:46:51Z</time>
      </trkpt>
      <trkpt lat="43.50232" lon="6.92681">
        <ele>147</ele>
        <time>2011-11-11T14:47:01Z</time>
      </trkpt>
      <trkpt lat="43.50226" lon="6.92642">
        <ele>149</ele>
        <time>2011-11-11T14:47:11Z</time>
      </trkpt>
      <trkpt lat="43.50217" lon="6.92608">
        <ele>151</ele>
        <time>2011-11-11T14:47:21Z</time>
      </trkpt>
      <trkpt lat="43.50211" lon="6.92577">
        <ele>154</ele>
        <time>2011-11-11T14:47:32Z</time>
      </trkpt>
      <trkpt lat="43.5021" lon="6.92552">
        <ele>155</ele>
        <time>2011-11-11T14:47:42Z</time>
      </trkpt>
      <trkpt lat="43.50209" lon="6.92527">
        <ele>158</ele>
        <time>2011-11-11T14:47:52Z</time>
      </trkpt>
      <trkpt lat="43.50208" lon="6.92503">
        <ele>162</ele>
        <time>2011-11-11T14:48:03Z</time>
      </trkpt>
      <trkpt lat="43.5022" lon="6.92484">
        <ele>170</ele>
        <time>2011-11-11T14:48:13Z</time>
      </trkpt>
      <trkpt lat="43.50235" lon="6.92466">
        <ele>170</ele>
        <time>2011-11-11T14:48:23Z</time>
      </trkpt>
      <trkpt lat="43.50253" lon="6.92454">
        <ele>170</ele>
        <time>2011-11-11T14:48:33Z</time>
      </trkpt>
      <trkpt lat="43.50269" lon="6.92449">
        <ele>171</ele>
        <time>2011-11-11T14:48:43Z</time>
      </trkpt>
      <trkpt lat="43.50286" lon="6.92445">
        <ele>171</ele>
        <time>2011-11-11T14:48:53Z</time>
      </trkpt>
      <trkpt lat="43.50303" lon="6.92446">
        <ele>171</ele>
        <time>2011-11-11T14:49:03Z</time>
      </trkpt>
      <trkpt lat="43.50323" lon="6.92452">
        <ele>172</ele>
        <time>2011-11-11T14:49:13Z</time>
      </trkpt>
      <trkpt lat="43.50347" lon="6.92452">
        <ele>172</ele>
        <time>2011-11-11T14:49:23Z</time>
      </trkpt>
      <trkpt lat="43.50378" lon="6.92451">
        <ele>172</ele>
        <time>2011-11-11T14:49:34Z</time>
      </trkpt>
      <trkpt lat="43.50406" lon="6.92456">
        <ele>172</ele>
        <time>2011-11-11T14:49:44Z</time>
      </trkpt>
      <trkpt lat="43.50416" lon="6.9246">
        <ele>172</ele>
        <time>2011-11-11T14:50:08Z</time>
      </trkpt>
      <trkpt lat="43.50417" lon="6.92461">
        <ele>172</ele>
        <time>2011-11-11T14:50:11Z</time>
      </trkpt>
      <trkpt lat="43.50419" lon="6.92462">
        <ele>172</ele>
        <time>2011-11-11T14:50:33Z</time>
      </trkpt>
      <trkpt lat="43.50431" lon="6.92474">
        <ele>172</ele>
        <time>2011-11-11T14:50:43Z</time>
      </trkpt>
      <trkpt lat="43.50452" lon="6.92497">
        <ele>172</ele>
        <time>2011-11-11T14:50:53Z</time>
      </trkpt>
      <trkpt lat="43.50469" lon="6.92515">
        <ele>175</ele>
        <time>2011-11-11T14:51:03Z</time>
      </trkpt>
      <trkpt lat="43.50488" lon="6.92526">
        <ele>182</ele>
        <time>2011-11-11T14:51:14Z</time>
      </trkpt>
      <trkpt lat="43.50503" lon="6.92529">
        <ele>186</ele>
        <time>2011-11-11T14:51:24Z</time>
      </trkpt>
      <trkpt lat="43.50517" lon="6.92532">
        <ele>189</ele>
        <time>2011-11-11T14:51:34Z</time>
      </trkpt>
      <trkpt lat="43.5052" lon="6.92534">
        <ele>190</ele>
        <time>2011-11-11T14:51:52Z</time>
      </trkpt>
      <trkpt lat="43.50526" lon="6.92535">
        <ele>190</ele>
        <time>2011-11-11T14:52:02Z</time>
      </trkpt>
      <trkpt lat="43.50531" lon="6.92537">
        <ele>193</ele>
        <time>2011-11-11T14:52:13Z</time>
      </trkpt>
      <trkpt lat="43.50535" lon="6.92536">
        <ele>196</ele>
        <time>2011-11-11T14:52:24Z</time>
      </trkpt>
      <trkpt lat="43.50543" lon="6.92534">
        <ele>196</ele>
        <time>2011-11-11T14:52:34Z</time>
      </trkpt>
      <trkpt lat="43.5055" lon="6.9253">
        <ele>196</ele>
        <time>2011-11-11T14:52:45Z</time>
      </trkpt>
      <trkpt lat="43.50555" lon="6.92527">
        <ele>196</ele>
        <time>2011-11-11T14:52:57Z</time>
      </trkpt>
      <trkpt lat="43.50559" lon="6.92526">
        <ele>196</ele>
        <time>2011-11-11T14:53:14Z</time>
      </trkpt>
      <trkpt lat="43.50563" lon="6.92525">
        <ele>196</ele>
        <time>2011-11-11T14:53:24Z</time>
      </trkpt>
      <trkpt lat="43.50571" lon="6.92523">
        <ele>196</ele>
        <time>2011-11-11T14:53:35Z</time>
      </trkpt>
      <trkpt lat="43.50578" lon="6.9252">
        <ele>199</ele>
        <time>2011-11-11T14:53:46Z</time>
      </trkpt>
      <trkpt lat="43.50587" lon="6.92517">
        <ele>201</ele>
        <time>2011-11-11T14:53:56Z</time>
      </trkpt>
      <trkpt lat="43.50591" lon="6.92513">
        <ele>202</ele>
        <time>2011-11-11T14:54:08Z</time>
      </trkpt>
      <trkpt lat="43.50592" lon="6.9251">
        <ele>202</ele>
        <time>2011-11-11T14:54:22Z</time>
      </trkpt>
      <trkpt lat="43.50591" lon="6.92509">
        <ele>202</ele>
        <time>2011-11-11T14:54:32Z</time>
      </trkpt>
      <trkpt lat="43.5059" lon="6.92507">
        <ele>202</ele>
        <time>2011-11-11T14:54:48Z</time>
      </trkpt>
      <trkpt lat="43.50593" lon="6.92505">
        <ele>204</ele>
        <time>2011-11-11T14:54:58Z</time>
      </trkpt>
      <trkpt lat="43.506" lon="6.92483">
        <ele>204</ele>
        <time>2011-11-11T14:55:08Z</time>
      </trkpt>
      <trkpt lat="43.50606" lon="6.9246">
        <ele>206</ele>
        <time>2011-11-11T14:55:18Z</time>
      </trkpt>
      <trkpt lat="43.50612" lon="6.92438">
        <ele>209</ele>
        <time>2011-11-11T14:55:28Z</time>
      </trkpt>
      <trkpt lat="43.50618" lon="6.92414">
        <ele>210</ele>
        <time>2011-11-11T14:55:38Z</time>
      </trkpt>
      <trkpt lat="43.50619" lon="6.9239">
        <ele>211</ele>
        <time>2011-11-11T14:55:48Z</time>
      </trkpt>
      <trkpt lat="43.50624" lon="6.92372">
        <ele>213</ele>
        <time>2011-11-11T14:55:58Z</time>
      </trkpt>
      <trkpt lat="43.5063" lon="6.92353">
        <ele>215</ele>
        <time>2011-11-11T14:56:08Z</time>
      </trkpt>
      <trkpt lat="43.50632" lon="6.92348">
        <ele>215</ele>
        <time>2011-11-11T14:56:19Z</time>
      </trkpt>
      <trkpt lat="43.50634" lon="6.92339">
        <ele>215</ele>
        <time>2011-11-11T14:56:29Z</time>
      </trkpt>
      <trkpt lat="43.50636" lon="6.92331">
        <ele>215</ele>
        <time>2011-11-11T14:56:40Z</time>
      </trkpt>
      <trkpt lat="43.50636" lon="6.92328">
        <ele>215</ele>
        <time>2011-11-11T14:56:50Z</time>
      </trkpt>
      <trkpt lat="43.50636" lon="6.92326">
        <ele>215</ele>
        <time>2011-11-11T14:57:01Z</time>
      </trkpt>
      <trkpt lat="43.50635" lon="6.92326">
        <ele>215</ele>
        <time>2011-11-11T14:57:15Z</time>
      </trkpt>
      <trkpt lat="43.50633" lon="6.92326">
        <ele>215</ele>
        <time>2011-11-11T14:57:28Z</time>
      </trkpt>
      <trkpt lat="43.50636" lon="6.92323">
        <ele>215</ele>
        <time>2011-11-11T14:57:39Z</time>
      </trkpt>
      <trkpt lat="43.50653" lon="6.92311">
        <ele>215</ele>
        <time>2011-11-11T14:57:49Z</time>
      </trkpt>
      <trkpt lat="43.50673" lon="6.92299">
        <ele>213</ele>
        <time>2011-11-11T14:57:59Z</time>
      </trkpt>
      <trkpt lat="43.50693" lon="6.92275">
        <ele>209</ele>
        <time>2011-11-11T14:58:09Z</time>
      </trkpt>
      <trkpt lat="43.50719" lon="6.92254">
        <ele>204</ele>
        <time>2011-11-11T14:58:19Z</time>
      </trkpt>
      <trkpt lat="43.50752" lon="6.92234">
        <ele>198</ele>
        <time>2011-11-11T14:58:29Z</time>
      </trkpt>
      <trkpt lat="43.50795" lon="6.92214">
        <ele>186</ele>
        <time>2011-11-11T14:58:31Z</time>
      </trkpt>
      <trkpt lat="43.50798" lon="6.92214">
        <ele>184</ele>
        <time>2011-11-11T14:58:52Z</time>
      </trkpt>
      <trkpt lat="43.50798" lon="6.92215">
        <ele>183</ele>
        <time>2011-11-11T14:59:07Z</time>
      </trkpt>
      <trkpt lat="43.50806" lon="6.92208">
        <ele>183</ele>
        <time>2011-11-11T14:59:18Z</time>
      </trkpt>
      <trkpt lat="43.50809" lon="6.92207">
        <ele>183</ele>
        <time>2011-11-11T14:59:31Z</time>
      </trkpt>
      <trkpt lat="43.50811" lon="6.92207">
        <ele>181</ele>
        <time>2011-11-11T14:59:47Z</time>
      </trkpt>
      <trkpt lat="43.50805" lon="6.92208">
        <ele>180</ele>
        <time>2011-11-11T14:59:57Z</time>
      </trkpt>
      <trkpt lat="43.50798" lon="6.92208">
        <ele>179</ele>
        <time>2011-11-11T15:00:08Z</time>
      </trkpt>
      <trkpt lat="43.50796" lon="6.92207">
        <ele>179</ele>
        <time>2011-11-11T15:00:24Z</time>
      </trkpt>
      <trkpt lat="43.50796" lon="6.92205">
        <ele>179</ele>
        <time>2011-11-11T15:00:34Z</time>
      </trkpt>
      <trkpt lat="43.50798" lon="6.92203">
        <ele>179</ele>
        <time>2011-11-11T15:00:37Z</time>
      </trkpt>
      <trkpt lat="43.50797" lon="6.92203">
        <ele>179</ele>
        <time>2011-11-11T15:00:53Z</time>
      </trkpt>
      <trkpt lat="43.50795" lon="6.92205">
        <ele>179</ele>
        <time>2011-11-11T15:01:05Z</time>
      </trkpt>
      <trkpt lat="43.50796" lon="6.92206">
        <ele>179</ele>
        <time>2011-11-11T15:01:15Z</time>
      </trkpt>
      <trkpt lat="43.50798" lon="6.92209">
        <ele>179</ele>
        <time>2011-11-11T15:01:30Z</time>
      </trkpt>
      <trkpt lat="43.50799" lon="6.92206">
        <ele>181</ele>
        <time>2011-11-11T15:01:41Z</time>
      </trkpt>
      <trkpt lat="43.50814" lon="6.92208">
        <ele>184</ele>
        <time>2011-11-11T15:01:51Z</time>
      </trkpt>
      <trkpt lat="43.50835" lon="6.92215">
        <ele>185</ele>
        <time>2011-11-11T15:02:01Z</time>
      </trkpt>
      <trkpt lat="43.50861" lon="6.9224">
        <ele>186</ele>
        <time>2011-11-11T15:02:11Z</time>
      </trkpt>
      <trkpt lat="43.50866" lon="6.92291">
        <ele>189</ele>
        <time>2011-11-11T15:02:21Z</time>
      </trkpt>
      <trkpt lat="43.50867" lon="6.92338">
        <ele>192</ele>
        <time>2011-11-11T15:02:31Z</time>
      </trkpt>
      <trkpt lat="43.50871" lon="6.92384">
        <ele>195</ele>
        <time>2011-11-11T15:02:41Z</time>
      </trkpt>
      <trkpt lat="43.5088" lon="6.92437">
        <ele>196</ele>
        <time>2011-11-11T15:02:51Z</time>
      </trkpt>
      <trkpt lat="43.50893" lon="6.92482">
        <ele>196</ele>
        <time>2011-11-11T15:03:01Z</time>
      </trkpt>
      <trkpt lat="43.50904" lon="6.92525">
        <ele>196</ele>
        <time>2011-11-11T15:03:11Z</time>
      </trkpt>
      <trkpt lat="43.50912" lon="6.92564">
        <ele>197</ele>
        <time>2011-11-11T15:03:21Z</time>
      </trkpt>
      <trkpt lat="43.5092" lon="6.92596">
        <ele>199</ele>
        <time>2011-11-11T15:03:31Z</time>
      </trkpt>
      <trkpt lat="43.50927" lon="6.92627">
        <ele>201</ele>
        <time>2011-11-11T15:03:41Z</time>
      </trkpt>
      <trkpt lat="43.50935" lon="6.92654">
        <ele>205</ele>
        <time>2011-11-11T15:03:51Z</time>
      </trkpt>
      <trkpt lat="43.50946" lon="6.92673">
        <ele>206</ele>
        <time>2011-11-11T15:04:01Z</time>
      </trkpt>
      <trkpt lat="43.50959" lon="6.9269">
        <ele>206</ele>
        <time>2011-11-11T15:04:11Z</time>
      </trkpt>
      <trkpt lat="43.50966" lon="6.92706">
        <ele>207</ele>
        <time>2011-11-11T15:04:21Z</time>
      </trkpt>
      <trkpt lat="43.50969" lon="6.92723">
        <ele>210</ele>
        <time>2011-11-11T15:04:31Z</time>
      </trkpt>
      <trkpt lat="43.50975" lon="6.92739">
        <ele>211</ele>
        <time>2011-11-11T15:04:41Z</time>
      </trkpt>
      <trkpt lat="43.5098" lon="6.92759">
        <ele>211</ele>
        <time>2011-11-11T15:04:51Z</time>
      </trkpt>
      <trkpt lat="43.50978" lon="6.9276">
        <ele>211</ele>
        <time>2011-11-11T15:05:05Z</time>
      </trkpt>
      <trkpt lat="43.50977" lon="6.92766">
        <ele>212</ele>
        <time>2011-11-11T15:05:15Z</time>
      </trkpt>
      <trkpt lat="43.50978" lon="6.92775">
        <ele>214</ele>
        <time>2011-11-11T15:05:26Z</time>
      </trkpt>
      <trkpt lat="43.50979" lon="6.92785">
        <ele>215</ele>
        <time>2011-11-11T15:05:36Z</time>
      </trkpt>
      <trkpt lat="43.50978" lon="6.92795">
        <ele>216</ele>
        <time>2011-11-11T15:05:46Z</time>
      </trkpt>
      <trkpt lat="43.50977" lon="6.92805">
        <ele>218</ele>
        <time>2011-11-11T15:05:56Z</time>
      </trkpt>
      <trkpt lat="43.50976" lon="6.92816">
        <ele>219</ele>
        <time>2011-11-11T15:06:06Z</time>
      </trkpt>
      <trkpt lat="43.50979" lon="6.92825">
        <ele>220</ele>
        <time>2011-11-11T15:06:19Z</time>
      </trkpt>
      <trkpt lat="43.5098" lon="6.9284">
        <ele>220</ele>
        <time>2011-11-11T15:06:29Z</time>
      </trkpt>
      <trkpt lat="43.50982" lon="6.92863">
        <ele>221</ele>
        <time>2011-11-11T15:06:39Z</time>
      </trkpt>
      <trkpt lat="43.50987" lon="6.92889">
        <ele>222</ele>
        <time>2011-11-11T15:06:49Z</time>
      </trkpt>
      <trkpt lat="43.50992" lon="6.92915">
        <ele>223</ele>
        <time>2011-11-11T15:06:59Z</time>
      </trkpt>
      <trkpt lat="43.50996" lon="6.92937">
        <ele>226</ele>
        <time>2011-11-11T15:07:09Z</time>
      </trkpt>
      <trkpt lat="43.51" lon="6.92961">
        <ele>229</ele>
        <time>2011-11-11T15:07:19Z</time>
      </trkpt>
      <trkpt lat="43.51001" lon="6.92988">
        <ele>230</ele>
        <time>2011-11-11T15:07:29Z</time>
      </trkpt>
      <trkpt lat="43.50999" lon="6.93009">
        <ele>231</ele>
        <time>2011-11-11T15:07:45Z</time>
      </trkpt>
      <trkpt lat="43.51" lon="6.93014">
        <ele>225</ele>
        <time>2011-11-11T15:08:06Z</time>
      </trkpt>
      <trkpt lat="43.51" lon="6.93015">
        <ele>225</ele>
        <time>2011-11-11T15:08:19Z</time>
      </trkpt>
      <trkpt lat="43.51001" lon="6.93014">
        <ele>217</ele>
        <time>2011-11-11T15:08:35Z</time>
      </trkpt>
      <trkpt lat="43.51001" lon="6.93016">
        <ele>214</ele>
        <time>2011-11-11T15:08:48Z</time>
      </trkpt>
      <trkpt lat="43.50999" lon="6.93016">
        <ele>214</ele>
        <time>2011-11-11T15:08:49Z</time>
      </trkpt>
      <trkpt lat="43.50998" lon="6.93019">
        <ele>214</ele>
        <time>2011-11-11T15:09:03Z</time>
      </trkpt>
      <trkpt lat="43.51" lon="6.93019">
        <ele>214</ele>
        <time>2011-11-11T15:09:13Z</time>
      </trkpt>
      <trkpt lat="43.51001" lon="6.93019">
        <ele>214</ele>
        <time>2011-11-11T15:09:23Z</time>
      </trkpt>
      <trkpt lat="43.51002" lon="6.93019">
        <ele>213</ele>
        <time>2011-11-11T15:09:33Z</time>
      </trkpt>
      <trkpt lat="43.51009" lon="6.93013">
        <ele>213</ele>
        <time>2011-11-11T15:09:43Z</time>
      </trkpt>
      <trkpt lat="43.51018" lon="6.93003">
        <ele>214</ele>
        <time>2011-11-11T15:09:54Z</time>
      </trkpt>
      <trkpt lat="43.51023" lon="6.92995">
        <ele>219</ele>
        <time>2011-11-11T15:10:05Z</time>
      </trkpt>
      <trkpt lat="43.51027" lon="6.9299">
        <ele>222</ele>
        <time>2011-11-11T15:10:18Z</time>
      </trkpt>
      <trkpt lat="43.51031" lon="6.92988">
        <ele>222</ele>
        <time>2011-11-11T15:10:28Z</time>
      </trkpt>
      <trkpt lat="43.51038" lon="6.92989">
        <ele>225</ele>
        <time>2011-11-11T15:10:38Z</time>
      </trkpt>
      <trkpt lat="43.51042" lon="6.92989">
        <ele>227</ele>
        <time>2011-11-11T15:10:49Z</time>
      </trkpt>
      <trkpt lat="43.5105" lon="6.92988">
        <ele>227</ele>
        <time>2011-11-11T15:11:05Z</time>
      </trkpt>
      <trkpt lat="43.51059" lon="6.92989">
        <ele>227</ele>
        <time>2011-11-11T15:11:16Z</time>
      </trkpt>
      <trkpt lat="43.51067" lon="6.9299">
        <ele>228</ele>
        <time>2011-11-11T15:11:26Z</time>
      </trkpt>
      <trkpt lat="43.51075" lon="6.92991">
        <ele>229</ele>
        <time>2011-11-11T15:11:36Z</time>
      </trkpt>
      <trkpt lat="43.5108" lon="6.92992">
        <ele>233</ele>
        <time>2011-11-11T15:11:54Z</time>
      </trkpt>
      <trkpt lat="43.51081" lon="6.92994">
        <ele>237</ele>
        <time>2011-11-11T15:12:05Z</time>
      </trkpt>
      <trkpt lat="43.51083" lon="6.92996">
        <ele>237</ele>
        <time>2011-11-11T15:12:16Z</time>
      </trkpt>
      <trkpt lat="43.51088" lon="6.92997">
        <ele>237</ele>
        <time>2011-11-11T15:12:26Z</time>
      </trkpt>
      <trkpt lat="43.51097" lon="6.92998">
        <ele>238</ele>
        <time>2011-11-11T15:12:37Z</time>
      </trkpt>
      <trkpt lat="43.511" lon="6.92998">
        <ele>238</ele>
        <time>2011-11-11T15:12:48Z</time>
      </trkpt>
      <trkpt lat="43.51107" lon="6.92999">
        <ele>238</ele>
        <time>2011-11-11T15:12:58Z</time>
      </trkpt>
      <trkpt lat="43.51116" lon="6.93003">
        <ele>238</ele>
        <time>2011-11-11T15:13:08Z</time>
      </trkpt>
      <trkpt lat="43.51123" lon="6.93002">
        <ele>241</ele>
        <time>2011-11-11T15:13:19Z</time>
      </trkpt>
      <trkpt lat="43.51129" lon="6.92999">
        <ele>242</ele>
        <time>2011-11-11T15:13:29Z</time>
      </trkpt>
      <trkpt lat="43.51131" lon="6.92998">
        <ele>242</ele>
        <time>2011-11-11T15:13:40Z</time>
      </trkpt>
      <trkpt lat="43.51132" lon="6.92996">
        <ele>242</ele>
        <time>2011-11-11T15:13:54Z</time>
      </trkpt>
      <trkpt lat="43.51133" lon="6.92993">
        <ele>243</ele>
        <time>2011-11-11T15:14:04Z</time>
      </trkpt>
      <trkpt lat="43.51134" lon="6.92991">
        <ele>241</ele>
        <time>2011-11-11T15:14:23Z</time>
      </trkpt>
      <trkpt lat="43.51135" lon="6.9299">
        <ele>239</ele>
        <time>2011-11-11T15:14:36Z</time>
      </trkpt>
      <trkpt lat="43.51133" lon="6.92977">
        <ele>239</ele>
        <time>2011-11-11T15:14:46Z</time>
      </trkpt>
      <trkpt lat="43.51134" lon="6.92968">
        <ele>239</ele>
        <time>2011-11-11T15:14:56Z</time>
      </trkpt>
      <trkpt lat="43.51133" lon="6.92961">
        <ele>239</ele>
        <time>2011-11-11T15:15:06Z</time>
      </trkpt>
      <trkpt lat="43.51135" lon="6.92961">
        <ele>239</ele>
        <time>2011-11-11T15:15:20Z</time>
      </trkpt>
      <trkpt lat="43.51135" lon="6.92959">
        <ele>239</ele>
        <time>2011-11-11T15:15:36Z</time>
      </trkpt>
      <trkpt lat="43.51132" lon="6.92956">
        <ele>239</ele>
        <time>2011-11-11T15:15:51Z</time>
      </trkpt>
      <trkpt lat="43.51119" lon="6.92941">
        <ele>239</ele>
        <time>2011-11-11T15:16:01Z</time>
      </trkpt>
      <trkpt lat="43.5111" lon="6.92925">
        <ele>239</ele>
        <time>2011-11-11T15:16:16Z</time>
      </trkpt>
      <trkpt lat="43.51107" lon="6.92915">
        <ele>239</ele>
        <time>2011-11-11T15:16:28Z</time>
      </trkpt>
      <trkpt lat="43.51104" lon="6.92908">
        <ele>241</ele>
        <time>2011-11-11T15:16:39Z</time>
      </trkpt>
      <trkpt lat="43.51099" lon="6.929">
        <ele>244</ele>
        <time>2011-11-11T15:16:49Z</time>
      </trkpt>
      <trkpt lat="43.511" lon="6.92898">
        <ele>248</ele>
        <time>2011-11-11T15:17:00Z</time>
      </trkpt>
      <trkpt lat="43.51096" lon="6.92885">
        <ele>249</ele>
        <time>2011-11-11T15:17:11Z</time>
      </trkpt>
      <trkpt lat="43.51094" lon="6.92878">
        <ele>251</ele>
        <time>2011-11-11T15:17:22Z</time>
      </trkpt>
      <trkpt lat="43.51093" lon="6.92873">
        <ele>252</ele>
        <time>2011-11-11T15:17:32Z</time>
      </trkpt>
      <trkpt lat="43.51093" lon="6.92854">
        <ele>253</ele>
        <time>2011-11-11T15:17:42Z</time>
      </trkpt>
      <trkpt lat="43.51092" lon="6.92852">
        <ele>253</ele>
        <time>2011-11-11T15:17:53Z</time>
      </trkpt>
      <trkpt lat="43.51092" lon="6.9285">
        <ele>253</ele>
        <time>2011-11-11T15:18:10Z</time>
      </trkpt>
      <trkpt lat="43.51093" lon="6.92827">
        <ele>255</ele>
        <time>2011-11-11T15:18:20Z</time>
      </trkpt>
      <trkpt lat="43.51094" lon="6.92789">
        <ele>264</ele>
        <time>2011-11-11T15:18:30Z</time>
      </trkpt>
      <trkpt lat="43.51093" lon="6.92748">
        <ele>269</ele>
        <time>2011-11-11T15:18:40Z</time>
      </trkpt>
      <trkpt lat="43.51087" lon="6.92703">
        <ele>261</ele>
        <time>2011-11-11T15:18:50Z</time>
      </trkpt>
      <trkpt lat="43.51069" lon="6.92652">
        <ele>256</ele>
        <time>2011-11-11T15:19:00Z</time>
      </trkpt>
      <trkpt lat="43.51056" lon="6.92604">
        <ele>253</ele>
        <time>2011-11-11T15:19:10Z</time>
      </trkpt>
      <trkpt lat="43.51046" lon="6.92568">
        <ele>253</ele>
        <time>2011-11-11T15:19:20Z</time>
      </trkpt>
      <trkpt lat="43.51037" lon="6.92538">
        <ele>253</ele>
        <time>2011-11-11T15:19:30Z</time>
      </trkpt>
      <trkpt lat="43.51027" lon="6.92502">
        <ele>253</ele>
        <time>2011-11-11T15:19:40Z</time>
      </trkpt>
      <trkpt lat="43.51024" lon="6.92492">
        <ele>253</ele>
        <time>2011-11-11T15:19:57Z</time>
      </trkpt>
      <trkpt lat="43.51024" lon="6.92489">
        <ele>252</ele>
        <time>2011-11-11T15:20:10Z</time>
      </trkpt>
      <trkpt lat="43.51023" lon="6.92486">
        <ele>251</ele>
        <time>2011-11-11T15:20:23Z</time>
      </trkpt>
      <trkpt lat="43.51021" lon="6.92483">
        <ele>251</ele>
        <time>2011-11-11T15:20:35Z</time>
      </trkpt>
      <trkpt lat="43.51015" lon="6.92472">
        <ele>248</ele>
        <time>2011-11-11T15:20:45Z</time>
      </trkpt>
      <trkpt lat="43.51003" lon="6.92442">
        <ele>248</ele>
        <time>2011-11-11T15:20:55Z</time>
      </trkpt>
      <trkpt lat="43.51002" lon="6.92431">
        <ele>248</ele>
        <time>2011-11-11T15:21:13Z</time>
      </trkpt>
      <trkpt lat="43.50999" lon="6.92419">
        <ele>247</ele>
        <time>2011-11-11T15:21:16Z</time>
      </trkpt>
      <trkpt lat="43.50997" lon="6.92404">
        <ele>245</ele>
        <time>2011-11-11T15:21:27Z</time>
      </trkpt>
      <trkpt lat="43.50992" lon="6.92384">
        <ele>244</ele>
        <time>2011-11-11T15:21:37Z</time>
      </trkpt>
      <trkpt lat="43.50991" lon="6.92381">
        <ele>237</ele>
        <time>2011-11-11T15:21:56Z</time>
      </trkpt>
      <trkpt lat="43.50991" lon="6.92377">
        <ele>237</ele>
        <time>2011-11-11T15:22:15Z</time>
      </trkpt>
      <trkpt lat="43.5099" lon="6.92371">
        <ele>239</ele>
        <time>2011-11-11T15:22:33Z</time>
      </trkpt>
      <trkpt lat="43.50993" lon="6.92346">
        <ele>239</ele>
        <time>2011-11-11T15:22:44Z</time>
      </trkpt>
      <trkpt lat="43.51002" lon="6.92285">
        <ele>235</ele>
        <time>2011-11-11T15:22:54Z</time>
      </trkpt>
      <trkpt lat="43.51" lon="6.92212">
        <ele>228</ele>
        <time>2011-11-11T15:23:06Z</time>
      </trkpt>
      <trkpt lat="43.50999" lon="6.92212">
        <ele>222</ele>
        <time>2011-11-11T15:23:26Z</time>
      </trkpt>
      <trkpt lat="43.50999" lon="6.9221">
        <ele>222</ele>
        <time>2011-11-11T15:23:42Z</time>
      </trkpt>
      <trkpt lat="43.51012" lon="6.92176">
        <ele>222</ele>
        <time>2011-11-11T15:23:52Z</time>
      </trkpt>
      <trkpt lat="43.51005" lon="6.92144">
        <ele>222</ele>
        <time>2011-11-11T15:24:02Z</time>
      </trkpt>
      <trkpt lat="43.50996" lon="6.92121">
        <ele>222</ele>
        <time>2011-11-11T15:24:12Z</time>
      </trkpt>
      <trkpt lat="43.50996" lon="6.92098">
        <ele>218</ele>
        <time>2011-11-11T15:24:22Z</time>
      </trkpt>
      <trkpt lat="43.50988" lon="6.92072">
        <ele>212</ele>
        <time>2011-11-11T15:24:32Z</time>
      </trkpt>
      <trkpt lat="43.50983" lon="6.92063">
        <ele>207</ele>
        <time>2011-11-11T15:24:46Z</time>
      </trkpt>
      <trkpt lat="43.50982" lon="6.92061">
        <ele>202</ele>
        <time>2011-11-11T15:25:03Z</time>
      </trkpt>
      <trkpt lat="43.50983" lon="6.92058">
        <ele>202</ele>
        <time>2011-11-11T15:25:14Z</time>
      </trkpt>
      <trkpt lat="43.50986" lon="6.92045">
        <ele>202</ele>
        <time>2011-11-11T15:25:25Z</time>
      </trkpt>
      <trkpt lat="43.50986" lon="6.9203">
        <ele>200</ele>
        <time>2011-11-11T15:25:35Z</time>
      </trkpt>
      <trkpt lat="43.50986" lon="6.92006">
        <ele>200</ele>
        <time>2011-11-11T15:25:45Z</time>
      </trkpt>
      <trkpt lat="43.50982" lon="6.91971">
        <ele>199</ele>
        <time>2011-11-11T15:25:55Z</time>
      </trkpt>
      <trkpt lat="43.50988" lon="6.91926">
        <ele>192</ele>
        <time>2011-11-11T15:26:06Z</time>
      </trkpt>
      <trkpt lat="43.51002" lon="6.91867">
        <ele>188</ele>
        <time>2011-11-11T15:26:16Z</time>
      </trkpt>
      <trkpt lat="43.51018" lon="6.91838">
        <ele>186</ele>
        <time>2011-11-11T15:26:26Z</time>
      </trkpt>
      <trkpt lat="43.51034" lon="6.91823">
        <ele>185</ele>
        <time>2011-11-11T15:26:36Z</time>
      </trkpt>
      <trkpt lat="43.5105" lon="6.91804">
        <ele>179</ele>
        <time>2011-11-11T15:26:46Z</time>
      </trkpt>
      <trkpt lat="43.51071" lon="6.91789">
        <ele>172</ele>
        <time>2011-11-11T15:26:56Z</time>
      </trkpt>
      <trkpt lat="43.51095" lon="6.91773">
        <ele>167</ele>
        <time>2011-11-11T15:27:06Z</time>
      </trkpt>
      <trkpt lat="43.51125" lon="6.91756">
        <ele>162</ele>
        <time>2011-11-11T15:27:16Z</time>
      </trkpt>
      <trkpt lat="43.51157" lon="6.9174">
        <ele>157</ele>
        <time>2011-11-11T15:27:32Z</time>
      </trkpt>
      <trkpt lat="43.51159" lon="6.91738">
        <ele>156</ele>
        <time>2011-11-11T15:27:46Z</time>
      </trkpt>
      <trkpt lat="43.5116" lon="6.91738">
        <ele>156</ele>
        <time>2011-11-11T15:27:57Z</time>
      </trkpt>
      <trkpt lat="43.51159" lon="6.91739">
        <ele>156</ele>
        <time>2011-11-11T15:28:15Z</time>
      </trkpt>
      <trkpt lat="43.51159" lon="6.9174">
        <ele>154</ele>
        <time>2011-11-11T15:28:20Z</time>
      </trkpt>
      <trkpt lat="43.5116" lon="6.91741">
        <ele>154</ele>
        <time>2011-11-11T15:28:32Z</time>
      </trkpt>
      <trkpt lat="43.51162" lon="6.91739">
        <ele>150</ele>
        <time>2011-11-11T15:28:38Z</time>
      </trkpt>
      <trkpt lat="43.51164" lon="6.91737">
        <ele>151</ele>
        <time>2011-11-11T15:28:54Z</time>
      </trkpt>
      <trkpt lat="43.51182" lon="6.91728">
        <ele>151</ele>
        <time>2011-11-11T15:29:04Z</time>
      </trkpt>
      <trkpt lat="43.51179" lon="6.91707">
        <ele>151</ele>
        <time>2011-11-11T15:29:14Z</time>
      </trkpt>
      <trkpt lat="43.5116" lon="6.91697">
        <ele>151</ele>
        <time>2011-11-11T15:29:24Z</time>
      </trkpt>
      <trkpt lat="43.51144" lon="6.91695">
        <ele>151</ele>
        <time>2011-11-11T15:29:34Z</time>
      </trkpt>
      <trkpt lat="43.51125" lon="6.91694">
        <ele>148</ele>
        <time>2011-11-11T15:29:46Z</time>
      </trkpt>
      <trkpt lat="43.51122" lon="6.91694">
        <ele>147</ele>
        <time>2011-11-11T15:29:56Z</time>
      </trkpt>
      <trkpt lat="43.51119" lon="6.91693">
        <ele>145</ele>
        <time>2011-11-11T15:30:13Z</time>
      </trkpt>
      <trkpt lat="43.5112" lon="6.91687">
        <ele>140</ele>
        <time>2011-11-11T15:30:24Z</time>
      </trkpt>
      <trkpt lat="43.51117" lon="6.91681">
        <ele>137</ele>
        <time>2011-11-11T15:30:34Z</time>
      </trkpt>
      <trkpt lat="43.51102" lon="6.91683">
        <ele>135</ele>
        <time>2011-11-11T15:30:47Z</time>
      </trkpt>
      <trkpt lat="43.51099" lon="6.91686">
        <ele>129</ele>
        <time>2011-11-11T15:30:58Z</time>
      </trkpt>
      <trkpt lat="43.51099" lon="6.91686">
        <ele>127</ele>
        <time>2011-11-11T15:31:09Z</time>
      </trkpt>
      <trkpt lat="43.511" lon="6.91685">
        <ele>127</ele>
        <time>2011-11-11T15:31:23Z</time>
      </trkpt>
      <trkpt lat="43.51101" lon="6.91684">
        <ele>127</ele>
        <time>2011-11-11T15:31:36Z</time>
      </trkpt>
      <trkpt lat="43.51101" lon="6.91682">
        <ele>127</ele>
        <time>2011-11-11T15:31:49Z</time>
      </trkpt>
      <trkpt lat="43.51099" lon="6.9168">
        <ele>129</ele>
        <time>2011-11-11T15:32:07Z</time>
      </trkpt>
      <trkpt lat="43.51097" lon="6.91682">
        <ele>131</ele>
        <time>2011-11-11T15:32:21Z</time>
      </trkpt>
      <trkpt lat="43.51096" lon="6.91683">
        <ele>133</ele>
        <time>2011-11-11T15:32:33Z</time>
      </trkpt>
      <trkpt lat="43.51097" lon="6.91682">
        <ele>135</ele>
        <time>2011-11-11T15:32:44Z</time>
      </trkpt>
      <trkpt lat="43.51098" lon="6.91682">
        <ele>135</ele>
        <time>2011-11-11T15:32:58Z</time>
      </trkpt>
      <trkpt lat="43.51095" lon="6.91682">
        <ele>135</ele>
        <time>2011-11-11T15:33:09Z</time>
      </trkpt>
      <trkpt lat="43.51073" lon="6.91691">
        <ele>135</ele>
        <time>2011-11-11T15:33:19Z</time>
      </trkpt>
      <trkpt lat="43.51051" lon="6.91693">
        <ele>135</ele>
        <time>2011-11-11T15:33:29Z</time>
      </trkpt>
      <trkpt lat="43.51027" lon="6.91695">
        <ele>135</ele>
        <time>2011-11-11T15:33:39Z</time>
      </trkpt>
      <trkpt lat="43.51005" lon="6.91698">
        <ele>137</ele>
        <time>2011-11-11T15:33:49Z</time>
      </trkpt>
      <trkpt lat="43.50986" lon="6.917">
        <ele>139</ele>
        <time>2011-11-11T15:33:59Z</time>
      </trkpt>
      <trkpt lat="43.50967" lon="6.91705">
        <ele>140</ele>
        <time>2011-11-11T15:34:09Z</time>
      </trkpt>
      <trkpt lat="43.50945" lon="6.91717">
        <ele>142</ele>
        <time>2011-11-11T15:34:19Z</time>
      </trkpt>
      <trkpt lat="43.50927" lon="6.91735">
        <ele>144</ele>
        <time>2011-11-11T15:34:29Z</time>
      </trkpt>
      <trkpt lat="43.50925" lon="6.91758">
        <ele>146</ele>
        <time>2011-11-11T15:34:39Z</time>
      </trkpt>
      <trkpt lat="43.50927" lon="6.91777">
        <ele>146</ele>
        <time>2011-11-11T15:34:49Z</time>
      </trkpt>
      <trkpt lat="43.50928" lon="6.91797">
        <ele>147</ele>
        <time>2011-11-11T15:34:59Z</time>
      </trkpt>
      <trkpt lat="43.50928" lon="6.91817">
        <ele>148</ele>
        <time>2011-11-11T15:35:09Z</time>
      </trkpt>
      <trkpt lat="43.50927" lon="6.91836">
        <ele>150</ele>
        <time>2011-11-11T15:35:19Z</time>
      </trkpt>
      <trkpt lat="43.50925" lon="6.9185">
        <ele>150</ele>
        <time>2011-11-11T15:35:43Z</time>
      </trkpt>
      <trkpt lat="43.5092" lon="6.91874">
        <ele>152</ele>
        <time>2011-11-11T15:35:53Z</time>
      </trkpt>
      <trkpt lat="43.50915" lon="6.91896">
        <ele>154</ele>
        <time>2011-11-11T15:36:03Z</time>
      </trkpt>
      <trkpt lat="43.50912" lon="6.91919">
        <ele>156</ele>
        <time>2011-11-11T15:36:13Z</time>
      </trkpt>
      <trkpt lat="43.50911" lon="6.91942">
        <ele>158</ele>
        <time>2011-11-11T15:36:23Z</time>
      </trkpt>
      <trkpt lat="43.50911" lon="6.91965">
        <ele>158</ele>
        <time>2011-11-11T15:36:33Z</time>
      </trkpt>
      <trkpt lat="43.50911" lon="6.91985">
        <ele>158</ele>
        <time>2011-11-11T15:36:43Z</time>
      </trkpt>
      <trkpt lat="43.5091" lon="6.92007">
        <ele>158</ele>
        <time>2011-11-11T15:36:53Z</time>
      </trkpt>
      <trkpt lat="43.50904" lon="6.92029">
        <ele>158</ele>
        <time>2011-11-11T15:37:03Z</time>
      </trkpt>
      <trkpt lat="43.50894" lon="6.92049">
        <ele>158</ele>
        <time>2011-11-11T15:37:13Z</time>
      </trkpt>
      <trkpt lat="43.50884" lon="6.92066">
        <ele>160</ele>
        <time>2011-11-11T15:37:23Z</time>
      </trkpt>
      <trkpt lat="43.50874" lon="6.92082">
        <ele>163</ele>
        <time>2011-11-11T15:37:33Z</time>
      </trkpt>
      <trkpt lat="43.50861" lon="6.92092">
        <ele>165</ele>
        <time>2011-11-11T15:37:43Z</time>
      </trkpt>
      <trkpt lat="43.50848" lon="6.92104">
        <ele>167</ele>
        <time>2011-11-11T15:37:53Z</time>
      </trkpt>
      <trkpt lat="43.50838" lon="6.92119">
        <ele>171</ele>
        <time>2011-11-11T15:38:03Z</time>
      </trkpt>
      <trkpt lat="43.50828" lon="6.92136">
        <ele>172</ele>
        <time>2011-11-11T15:38:14Z</time>
      </trkpt>
      <trkpt lat="43.5082" lon="6.92153">
        <ele>174</ele>
        <time>2011-11-11T15:38:24Z</time>
      </trkpt>
      <trkpt lat="43.50808" lon="6.92165">
        <ele>176</ele>
        <time>2011-11-11T15:38:34Z</time>
      </trkpt>
      <trkpt lat="43.50796" lon="6.92175">
        <ele>178</ele>
        <time>2011-11-11T15:38:44Z</time>
      </trkpt>
      <trkpt lat="43.50784" lon="6.92183">
        <ele>181</ele>
        <time>2011-11-11T15:38:54Z</time>
      </trkpt>
      <trkpt lat="43.50768" lon="6.92187">
        <ele>183</ele>
        <time>2011-11-11T15:39:04Z</time>
      </trkpt>
      <trkpt lat="43.50759" lon="6.92188">
        <ele>183</ele>
        <time>2011-11-11T15:39:11Z</time>
      </trkpt>
      <trkpt lat="43.50758" lon="6.92188">
        <ele>179</ele>
        <time>2011-11-11T15:39:28Z</time>
      </trkpt>
      <trkpt lat="43.50757" lon="6.92188">
        <ele>174</ele>
        <time>2011-11-11T15:39:52Z</time>
      </trkpt>
      <trkpt lat="43.50758" lon="6.92191">
        <ele>174</ele>
        <time>2011-11-11T15:40:07Z</time>
      </trkpt>
      <trkpt lat="43.50759" lon="6.9219">
        <ele>174</ele>
        <time>2011-11-11T15:40:21Z</time>
      </trkpt>
      <trkpt lat="43.5076" lon="6.92189">
        <ele>174</ele>
        <time>2011-11-11T15:40:46Z</time>
      </trkpt>
      <trkpt lat="43.5076" lon="6.92189">
        <ele>174</ele>
        <time>2011-11-11T15:40:57Z</time>
      </trkpt>
      <trkpt lat="43.50759" lon="6.92191">
        <ele>172</ele>
        <time>2011-11-11T15:41:21Z</time>
      </trkpt>
      <trkpt lat="43.50758" lon="6.92189">
        <ele>170</ele>
        <time>2011-11-11T15:41:42Z</time>
      </trkpt>
      <trkpt lat="43.50757" lon="6.92191">
        <ele>170</ele>
        <time>2011-11-11T15:41:53Z</time>
      </trkpt>
      <trkpt lat="43.50758" lon="6.92191">
        <ele>173</ele>
        <time>2011-11-11T15:42:07Z</time>
      </trkpt>
      <trkpt lat="43.50756" lon="6.92188">
        <ele>174</ele>
        <time>2011-11-11T15:42:18Z</time>
      </trkpt>
      <trkpt lat="43.50757" lon="6.92187">
        <ele>174</ele>
        <time>2011-11-11T15:42:43Z</time>
      </trkpt>
      <trkpt lat="43.50755" lon="6.92188">
        <ele>174</ele>
        <time>2011-11-11T15:42:57Z</time>
      </trkpt>
      <trkpt lat="43.5074" lon="6.92192">
        <ele>174</ele>
        <time>2011-11-11T15:43:07Z</time>
      </trkpt>
      <trkpt lat="43.50717" lon="6.92199">
        <ele>175</ele>
        <time>2011-11-11T15:43:17Z</time>
      </trkpt>
      <trkpt lat="43.50696" lon="6.9221">
        <ele>177</ele>
        <time>2011-11-11T15:43:27Z</time>
      </trkpt>
      <trkpt lat="43.50674" lon="6.9222">
        <ele>180</ele>
        <time>2011-11-11T15:43:37Z</time>
      </trkpt>
      <trkpt lat="43.50654" lon="6.92227">
        <ele>182</ele>
        <time>2011-11-11T15:43:47Z</time>
      </trkpt>
      <trkpt lat="43.50638" lon="6.92234">
        <ele>183</ele>
        <time>2011-11-11T15:43:57Z</time>
      </trkpt>
      <trkpt lat="43.50618" lon="6.92243">
        <ele>185</ele>
        <time>2011-11-11T15:44:07Z</time>
      </trkpt>
      <trkpt lat="43.50598" lon="6.92255">
        <ele>186</ele>
        <time>2011-11-11T15:44:17Z</time>
      </trkpt>
      <trkpt lat="43.50583" lon="6.92281">
        <ele>188</ele>
        <time>2011-11-11T15:44:27Z</time>
      </trkpt>
      <trkpt lat="43.50576" lon="6.92311">
        <ele>191</ele>
        <time>2011-11-11T15:44:37Z</time>
      </trkpt>
      <trkpt lat="43.5057" lon="6.92348">
        <ele>191</ele>
        <time>2011-11-11T15:44:47Z</time>
      </trkpt>
      <trkpt lat="43.5056" lon="6.92405">
        <ele>191</ele>
        <time>2011-11-11T15:44:57Z</time>
      </trkpt>
      <trkpt lat="43.5053" lon="6.92482">
        <ele>190</ele>
        <time>2011-11-11T15:45:07Z</time>
      </trkpt>
      <trkpt lat="43.50445" lon="6.92477">
        <ele>184</ele>
        <time>2011-11-11T15:45:17Z</time>
      </trkpt>
      <trkpt lat="43.504" lon="6.92428">
        <ele>183</ele>
        <time>2011-11-11T15:45:27Z</time>
      </trkpt>
      <trkpt lat="43.50388" lon="6.92413">
        <ele>183</ele>
        <time>2011-11-11T15:45:37Z</time>
      </trkpt>
      <trkpt lat="43.50377" lon="6.92398">
        <ele>183</ele>
        <time>2011-11-11T15:45:47Z</time>
      </trkpt>
      <trkpt lat="43.50365" lon="6.92382">
        <ele>183</ele>
        <time>2011-11-11T15:45:58Z</time>
      </trkpt>
      <trkpt lat="43.50355" lon="6.92365">
        <ele>185</ele>
        <time>2011-11-11T15:46:09Z</time>
      </trkpt>
      <trkpt lat="43.50345" lon="6.9235">
        <ele>185</ele>
        <time>2011-11-11T15:46:19Z</time>
      </trkpt>
      <trkpt lat="43.50335" lon="6.92336">
        <ele>186</ele>
        <time>2011-11-11T15:46:29Z</time>
      </trkpt>
      <trkpt lat="43.50326" lon="6.92323">
        <ele>187</ele>
        <time>2011-11-11T15:46:39Z</time>
      </trkpt>
      <trkpt lat="43.50315" lon="6.92311">
        <ele>189</ele>
        <time>2011-11-11T15:46:49Z</time>
      </trkpt>
      <trkpt lat="43.50302" lon="6.92305">
        <ele>191</ele>
        <time>2011-11-11T15:46:59Z</time>
      </trkpt>
      <trkpt lat="43.50289" lon="6.92302">
        <ele>193</ele>
        <time>2011-11-11T15:47:09Z</time>
      </trkpt>
      <trkpt lat="43.50277" lon="6.92304">
        <ele>195</ele>
        <time>2011-11-11T15:47:19Z</time>
      </trkpt>
      <trkpt lat="43.50265" lon="6.92309">
        <ele>197</ele>
        <time>2011-11-11T15:47:30Z</time>
      </trkpt>
      <trkpt lat="43.50253" lon="6.92318">
        <ele>199</ele>
        <time>2011-11-11T15:47:41Z</time>
      </trkpt>
      <trkpt lat="43.50241" lon="6.92325">
        <ele>201</ele>
        <time>2011-11-11T15:47:51Z</time>
      </trkpt>
      <trkpt lat="43.5023" lon="6.92333">
        <ele>203</ele>
        <time>2011-11-11T15:48:01Z</time>
      </trkpt>
      <trkpt lat="43.50217" lon="6.92339">
        <ele>205</ele>
        <time>2011-11-11T15:48:11Z</time>
      </trkpt>
      <trkpt lat="43.50203" lon="6.92346">
        <ele>208</ele>
        <time>2011-11-11T15:48:21Z</time>
      </trkpt>
      <trkpt lat="43.50189" lon="6.92354">
        <ele>210</ele>
        <time>2011-11-11T15:48:31Z</time>
      </trkpt>
      <trkpt lat="43.50176" lon="6.92362">
        <ele>212</ele>
        <time>2011-11-11T15:48:41Z</time>
      </trkpt>
      <trkpt lat="43.50163" lon="6.92368">
        <ele>215</ele>
        <time>2011-11-11T15:48:51Z</time>
      </trkpt>
      <trkpt lat="43.50152" lon="6.92376">
        <ele>217</ele>
        <time>2011-11-11T15:49:02Z</time>
      </trkpt>
      <trkpt lat="43.50145" lon="6.92384">
        <ele>218</ele>
        <time>2011-11-11T15:49:12Z</time>
      </trkpt>
      <trkpt lat="43.50145" lon="6.92385">
        <ele>218</ele>
        <time>2011-11-11T15:49:24Z</time>
      </trkpt>
      <trkpt lat="43.50144" lon="6.92387">
        <ele>218</ele>
        <time>2011-11-11T15:49:41Z</time>
      </trkpt>
      <trkpt lat="43.50143" lon="6.92387">
        <ele>218</ele>
        <time>2011-11-11T15:50:03Z</time>
      </trkpt>
      <trkpt lat="43.50142" lon="6.92386">
        <ele>218</ele>
        <time>2011-11-11T15:50:08Z</time>
      </trkpt>
      <trkpt lat="43.50131" lon="6.92377">
        <ele>218</ele>
        <time>2011-11-11T15:50:18Z</time>
      </trkpt>
      <trkpt lat="43.50118" lon="6.9237">
        <ele>218</ele>
        <time>2011-11-11T15:50:28Z</time>
      </trkpt>
      <trkpt lat="43.50107" lon="6.92364">
        <ele>218</ele>
        <time>2011-11-11T15:50:38Z</time>
      </trkpt>
      <trkpt lat="43.50094" lon="6.92358">
        <ele>223</ele>
        <time>2011-11-11T15:50:48Z</time>
      </trkpt>
      <trkpt lat="43.50083" lon="6.92352">
        <ele>228</ele>
        <time>2011-11-11T15:50:58Z</time>
      </trkpt>
      <trkpt lat="43.5007" lon="6.92346">
        <ele>231</ele>
        <time>2011-11-11T15:51:09Z</time>
      </trkpt>
      <trkpt lat="43.50057" lon="6.92339">
        <ele>234</ele>
        <time>2011-11-11T15:51:19Z</time>
      </trkpt>
      <trkpt lat="43.50051" lon="6.92324">
        <ele>235</ele>
        <time>2011-11-11T15:51:29Z</time>
      </trkpt>
      <trkpt lat="43.50044" lon="6.92304">
        <ele>236</ele>
        <time>2011-11-11T15:51:39Z</time>
      </trkpt>
      <trkpt lat="43.50035" lon="6.9229">
        <ele>236</ele>
        <time>2011-11-11T15:51:49Z</time>
      </trkpt>
      <trkpt lat="43.50025" lon="6.92275">
        <ele>236</ele>
        <time>2011-11-11T15:51:59Z</time>
      </trkpt>
      <trkpt lat="43.50013" lon="6.9226">
        <ele>239</ele>
        <time>2011-11-11T15:52:09Z</time>
      </trkpt>
      <trkpt lat="43.5" lon="6.92241">
        <ele>241</ele>
        <time>2011-11-11T15:52:19Z</time>
      </trkpt>
      <trkpt lat="43.49986" lon="6.92221">
        <ele>242</ele>
        <time>2011-11-11T15:52:29Z</time>
      </trkpt>
      <trkpt lat="43.49978" lon="6.92201">
        <ele>238</ele>
        <time>2011-11-11T15:52:39Z</time>
      </trkpt>
      <trkpt lat="43.49973" lon="6.92186">
        <ele>237</ele>
        <time>2011-11-11T15:52:49Z</time>
      </trkpt>
      <trkpt lat="43.49969" lon="6.92183">
        <ele>237</ele>
        <time>2011-11-11T15:53:06Z</time>
      </trkpt>
      <trkpt lat="43.49931" lon="6.92204">
        <ele>237</ele>
        <time>2011-11-11T15:53:16Z</time>
      </trkpt>
      <trkpt lat="43.4987" lon="6.92242">
        <ele>231</ele>
        <time>2011-11-11T15:53:26Z</time>
      </trkpt>
      <trkpt lat="43.4984" lon="6.92226">
        <ele>225</ele>
        <time>2011-11-11T15:53:36Z</time>
      </trkpt>
      <trkpt lat="43.49833" lon="6.92233">
        <ele>222</ele>
        <time>2011-11-11T15:53:45Z</time>
      </trkpt>
      <trkpt lat="43.49832" lon="6.92233">
        <ele>218</ele>
        <time>2011-11-11T15:53:56Z</time>
      </trkpt>
      <trkpt lat="43.49832" lon="6.92236">
        <ele>218</ele>
        <time>2011-11-11T15:54:09Z</time>
      </trkpt>
      <trkpt lat="43.49832" lon="6.92239">
        <ele>218</ele>
        <time>2011-11-11T15:54:21Z</time>
      </trkpt>
      <trkpt lat="43.49834" lon="6.92239">
        <ele>218</ele>
        <time>2011-11-11T15:54:45Z</time>
      </trkpt>
      <trkpt lat="43.49848" lon="6.92268">
        <ele>218</ele>
        <time>2011-11-11T15:54:55Z</time>
      </trkpt>
      <trkpt lat="43.49863" lon="6.92331">
        <ele>218</ele>
        <time>2011-11-11T15:55:05Z</time>
      </trkpt>
      <trkpt lat="43.49875" lon="6.92398">
        <ele>218</ele>
        <time>2011-11-11T15:55:15Z</time>
      </trkpt>
      <trkpt lat="43.49889" lon="6.9246">
        <ele>220</ele>
        <time>2011-11-11T15:55:25Z</time>
      </trkpt>
      <trkpt lat="43.49896" lon="6.92505">
        <ele>220</ele>
        <time>2011-11-11T15:55:35Z</time>
      </trkpt>
      <trkpt lat="43.49907" lon="6.92559">
        <ele>218</ele>
        <time>2011-11-11T15:55:45Z</time>
      </trkpt>
      <trkpt lat="43.49921" lon="6.92615">
        <ele>214</ele>
        <time>2011-11-11T15:55:55Z</time>
      </trkpt>
      <trkpt lat="43.49927" lon="6.92638">
        <ele>213</ele>
        <time>2011-11-11T15:56:07Z</time>
      </trkpt>
      <trkpt lat="43.49932" lon="6.92646">
        <ele>210</ele>
        <time>2011-11-11T15:56:19Z</time>
      </trkpt>
      <trkpt lat="43.49935" lon="6.92657">
        <ele>206</ele>
        <time>2011-11-11T15:56:29Z</time>
      </trkpt>
      <trkpt lat="43.49942" lon="6.92676">
        <ele>206</ele>
        <time>2011-11-11T15:56:39Z</time>
      </trkpt>
      <trkpt lat="43.49959" lon="6.92705">
        <ele>206</ele>
        <time>2011-11-11T15:56:49Z</time>
      </trkpt>
      <trkpt lat="43.49978" lon="6.92727">
        <ele>206</ele>
        <time>2011-11-11T15:56:59Z</time>
      </trkpt>
      <trkpt lat="43.49989" lon="6.92755">
        <ele>206</ele>
        <time>2011-11-11T15:57:09Z</time>
      </trkpt>
      <trkpt lat="43.49998" lon="6.9279">
        <ele>206</ele>
        <time>2011-11-11T15:57:19Z</time>
      </trkpt>
      <trkpt lat="43.50007" lon="6.92824">
        <ele>203</ele>
        <time>2011-11-11T15:57:29Z</time>
      </trkpt>
      <trkpt lat="43.50013" lon="6.92863">
        <ele>199</ele>
        <time>2011-11-11T15:57:39Z</time>
      </trkpt>
      <trkpt lat="43.50014" lon="6.9289">
        <ele>194</ele>
        <time>2011-11-11T15:57:49Z</time>
      </trkpt>
      <trkpt lat="43.50015" lon="6.92932">
        <ele>189</ele>
        <time>2011-11-11T15:58:00Z</time>
      </trkpt>
      <trkpt lat="43.50017" lon="6.92976">
        <ele>183</ele>
        <time>2011-11-11T15:58:10Z</time>
      </trkpt>
      <trkpt lat="43.50021" lon="6.93019">
        <ele>180</ele>
        <time>2011-11-11T15:58:20Z</time>
      </trkpt>
      <trkpt lat="43.50021" lon="6.93037">
        <ele>180</ele>
        <time>2011-11-11T15:58:32Z</time>
      </trkpt>
      <trkpt lat="43.50022" lon="6.93044">
        <ele>181</ele>
        <time>2011-11-11T15:58:43Z</time>
      </trkpt>
      <trkpt lat="43.50023" lon="6.93044">
        <ele>181</ele>
        <time>2011-11-11T15:58:55Z</time>
      </trkpt>
      <trkpt lat="43.50022" lon="6.93042">
        <ele>181</ele>
        <time>2011-11-11T15:59:08Z</time>
      </trkpt>
      <trkpt lat="43.50025" lon="6.93041">
        <ele>179</ele>
        <time>2011-11-11T15:59:25Z</time>
      </trkpt>
      <trkpt lat="43.50025" lon="6.93041">
        <ele>175</ele>
        <time>2011-11-11T15:59:49Z</time>
      </trkpt>
      <trkpt lat="43.50022" lon="6.93039">
        <ele>175</ele>
        <time>2011-11-11T16:00:05Z</time>
      </trkpt>
      <trkpt lat="43.50024" lon="6.93052">
        <ele>176</ele>
        <time>2011-11-11T16:00:15Z</time>
      </trkpt>
      <trkpt lat="43.50033" lon="6.93095">
        <ele>178</ele>
        <time>2011-11-11T16:00:25Z</time>
      </trkpt>
      <trkpt lat="43.50048" lon="6.93135">
        <ele>179</ele>
        <time>2011-11-11T16:00:35Z</time>
      </trkpt>
      <trkpt lat="43.50081" lon="6.93176">
        <ele>181</ele>
        <time>2011-11-11T16:00:45Z</time>
      </trkpt>
      <trkpt lat="43.50087" lon="6.93177">
        <ele>181</ele>
        <time>2011-11-11T16:00:59Z</time>
      </trkpt>
      <trkpt lat="43.50097" lon="6.93171">
        <ele>181</ele>
        <time>2011-11-11T16:01:11Z</time>
      </trkpt>
      <trkpt lat="43.50109" lon="6.93171">
        <ele>181</ele>
        <time>2011-11-11T16:01:23Z</time>
      </trkpt>
      <trkpt lat="43.50118" lon="6.93173">
        <ele>181</ele>
        <time>2011-11-11T16:01:34Z</time>
      </trkpt>
      <trkpt lat="43.50122" lon="6.93172">
        <ele>181</ele>
        <time>2011-11-11T16:01:51Z</time>
      </trkpt>
      <trkpt lat="43.5012" lon="6.93172">
        <ele>181</ele>
        <time>2011-11-11T16:02:14Z</time>
      </trkpt>
      <trkpt lat="43.50121" lon="6.93173">
        <ele>182</ele>
        <time>2011-11-11T16:02:30Z</time>
      </trkpt>
      <trkpt lat="43.50126" lon="6.93174">
        <ele>182</ele>
        <time>2011-11-11T16:02:40Z</time>
      </trkpt>
      <trkpt lat="43.5014" lon="6.93188">
        <ele>182</ele>
        <time>2011-11-11T16:02:50Z</time>
      </trkpt>
      <trkpt lat="43.50142" lon="6.93195">
        <ele>182</ele>
        <time>2011-11-11T16:03:01Z</time>
      </trkpt>
      <trkpt lat="43.50152" lon="6.93216">
        <ele>179</ele>
        <time>2011-11-11T16:03:11Z</time>
      </trkpt>
      <trkpt lat="43.50172" lon="6.9325">
        <ele>175</ele>
        <time>2011-11-11T16:03:21Z</time>
      </trkpt>
      <trkpt lat="43.50186" lon="6.93273">
        <ele>171</ele>
        <time>2011-11-11T16:03:31Z</time>
      </trkpt>
      <trkpt lat="43.50201" lon="6.93292">
        <ele>165</ele>
        <time>2011-11-11T16:03:41Z</time>
      </trkpt>
      <trkpt lat="43.50216" lon="6.93301">
        <ele>160</ele>
        <time>2011-11-11T16:03:52Z</time>
      </trkpt>
      <trkpt lat="43.50219" lon="6.93309">
        <ele>158</ele>
        <time>2011-11-11T16:04:02Z</time>
      </trkpt>
      <trkpt lat="43.50233" lon="6.93314">
        <ele>154</ele>
        <time>2011-11-11T16:04:12Z</time>
      </trkpt>
      <trkpt lat="43.50232" lon="6.9333">
        <ele>150</ele>
        <time>2011-11-11T16:04:28Z</time>
      </trkpt>
      <trkpt lat="43.50235" lon="6.93332">
        <ele>150</ele>
        <time>2011-11-11T16:04:42Z</time>
      </trkpt>
      <trkpt lat="43.50235" lon="6.93333">
        <ele>151</ele>
        <time>2011-11-11T16:04:50Z</time>
      </trkpt>
      <trkpt lat="43.50232" lon="6.93333">
        <ele>151</ele>
        <time>2011-11-11T16:05:02Z</time>
      </trkpt>
      <trkpt lat="43.50231" lon="6.93335">
        <ele>151</ele>
        <time>2011-11-11T16:05:13Z</time>
      </trkpt>
      <trkpt lat="43.50217" lon="6.93345">
        <ele>146</ele>
        <time>2011-11-11T16:05:23Z</time>
      </trkpt>
      <trkpt lat="43.50208" lon="6.93346">
        <ele>145</ele>
        <time>2011-11-11T16:05:37Z</time>
      </trkpt>
      <trkpt lat="43.50202" lon="6.93349">
        <ele>145</ele>
        <time>2011-11-11T16:05:47Z</time>
      </trkpt>
      <trkpt lat="43.50182" lon="6.93361">
        <ele>145</ele>
        <time>2011-11-11T16:05:57Z</time>
      </trkpt>
      <trkpt lat="43.50178" lon="6.93388">
        <ele>136</ele>
        <time>2011-11-11T16:06:07Z</time>
      </trkpt>
      <trkpt lat="43.50174" lon="6.93386">
        <ele>128</ele>
        <time>2011-11-11T16:06:18Z</time>
      </trkpt>
      <trkpt lat="43.50169" lon="6.93384">
        <ele>127</ele>
        <time>2011-11-11T16:06:32Z</time>
      </trkpt>
      <trkpt lat="43.5017" lon="6.93386">
        <ele>127</ele>
        <time>2011-11-11T16:06:45Z</time>
      </trkpt>
      <trkpt lat="43.50171" lon="6.93388">
        <ele>127</ele>
        <time>2011-11-11T16:06:56Z</time>
      </trkpt>
      <trkpt lat="43.50172" lon="6.93387">
        <ele>127</ele>
        <time>2011-11-11T16:07:19Z</time>
      </trkpt>
      <trkpt lat="43.50169" lon="6.93387">
        <ele>127</ele>
        <time>2011-11-11T16:07:31Z</time>
      </trkpt>
      <trkpt lat="43.5017" lon="6.93385">
        <ele>127</ele>
        <time>2011-11-11T16:07:42Z</time>
      </trkpt>
      <trkpt lat="43.50171" lon="6.93388">
        <ele>127</ele>
        <time>2011-11-11T16:07:53Z</time>
      </trkpt>
      <trkpt lat="43.50169" lon="6.93388">
        <ele>124</ele>
        <time>2011-11-11T16:08:03Z</time>
      </trkpt>
      <trkpt lat="43.50168" lon="6.93391">
        <ele>124</ele>
        <time>2011-11-11T16:08:17Z</time>
      </trkpt>
      <trkpt lat="43.50166" lon="6.93396">
        <ele>124</ele>
        <time>2011-11-11T16:08:28Z</time>
      </trkpt>
      <trkpt lat="43.50166" lon="6.93393">
        <ele>124</ele>
        <time>2011-11-11T16:08:40Z</time>
      </trkpt>
      <trkpt lat="43.50166" lon="6.93388">
        <ele>119</ele>
        <time>2011-11-11T16:08:52Z</time>
      </trkpt>
      <trkpt lat="43.50167" lon="6.93388">
        <ele>123</ele>
        <time>2011-11-11T16:09:12Z</time>
      </trkpt>
      <trkpt lat="43.50167" lon="6.9339">
        <ele>124</ele>
        <time>2011-11-11T16:09:28Z</time>
      </trkpt>
      <trkpt lat="43.50168" lon="6.93396">
        <ele>132</ele>
        <time>2011-11-11T16:09:39Z</time>
      </trkpt>
      <trkpt lat="43.50168" lon="6.93399">
        <ele>136</ele>
        <time>2011-11-11T16:09:58Z</time>
      </trkpt>
      <trkpt lat="43.50167" lon="6.93399">
        <ele>137</ele>
        <time>2011-11-11T16:10:08Z</time>
      </trkpt>
      <trkpt lat="43.50165" lon="6.93395">
        <ele>136</ele>
        <time>2011-11-11T16:10:18Z</time>
      </trkpt>
      <trkpt lat="43.50147" lon="6.93373">
        <ele>134</ele>
        <time>2011-11-11T16:10:28Z</time>
      </trkpt>
      <trkpt lat="43.50123" lon="6.93331">
        <ele>133</ele>
        <time>2011-11-11T16:10:38Z</time>
      </trkpt>
      <trkpt lat="43.50095" lon="6.93313">
        <ele>131</ele>
        <time>2011-11-11T16:10:48Z</time>
      </trkpt>
      <trkpt lat="43.50064" lon="6.93307">
        <ele>131</ele>
        <time>2011-11-11T16:10:58Z</time>
      </trkpt>
      <trkpt lat="43.50026" lon="6.93293">
        <ele>127</ele>
        <time>2011-11-11T16:11:08Z</time>
      </trkpt>
      <trkpt lat="43.50014" lon="6.93286">
        <ele>127</ele>
        <time>2011-11-11T16:11:19Z</time>
      </trkpt>
      <trkpt lat="43.50009" lon="6.9328">
        <ele>125</ele>
        <time>2011-11-11T16:11:29Z</time>
      </trkpt>
      <trkpt lat="43.50002" lon="6.93277">
        <ele>125</ele>
        <time>2011-11-11T16:11:39Z</time>
      </trkpt>
      <trkpt lat="43.49994" lon="6.93275">
        <ele>125</ele>
        <time>2011-11-11T16:11:49Z</time>
      </trkpt>
      <trkpt lat="43.49984" lon="6.93266">
        <ele>127</ele>
        <time>2011-11-11T16:12:00Z</time>
      </trkpt>
      <trkpt lat="43.49977" lon="6.93254">
        <ele>130</ele>
        <time>2011-11-11T16:12:10Z</time>
      </trkpt>
      <trkpt lat="43.49978" lon="6.93246">
        <ele>130</ele>
        <time>2011-11-11T16:12:16Z</time>
      </trkpt>
      <trkpt lat="43.49979" lon="6.93225">
        <ele>131</ele>
        <time>2011-11-11T16:12:26Z</time>
      </trkpt>
      <trkpt lat="43.49975" lon="6.93193">
        <ele>132</ele>
        <time>2011-11-11T16:12:36Z</time>
      </trkpt>
      <trkpt lat="43.49966" lon="6.93174">
        <ele>132</ele>
        <time>2011-11-11T16:12:46Z</time>
      </trkpt>
      <trkpt lat="43.49961" lon="6.93159">
        <ele>132</ele>
        <time>2011-11-11T16:12:56Z</time>
      </trkpt>
      <trkpt lat="43.49949" lon="6.93131">
        <ele>132</ele>
        <time>2011-11-11T16:13:07Z</time>
      </trkpt>
      <trkpt lat="43.49933" lon="6.93102">
        <ele>129</ele>
        <time>2011-11-11T16:13:17Z</time>
      </trkpt>
      <trkpt lat="43.49921" lon="6.93063">
        <ele>127</ele>
        <time>2011-11-11T16:13:27Z</time>
      </trkpt>
      <trkpt lat="43.49909" lon="6.93008">
        <ele>123</ele>
        <time>2011-11-11T16:13:37Z</time>
      </trkpt>
      <trkpt lat="43.49897" lon="6.92952">
        <ele>120</ele>
        <time>2011-11-11T16:13:47Z</time>
      </trkpt>
      <trkpt lat="43.49872" lon="6.92921">
        <ele>120</ele>
        <time>2011-11-11T16:13:57Z</time>
      </trkpt>
      <trkpt lat="43.49865" lon="6.92909">
        <ele>121</ele>
        <time>2011-11-11T16:14:11Z</time>
      </trkpt>
      <trkpt lat="43.49864" lon="6.92907">
        <ele>121</ele>
        <time>2011-11-11T16:14:23Z</time>
      </trkpt>
      <trkpt lat="43.49851" lon="6.92882">
        <ele>122</ele>
        <time>2011-11-11T16:14:33Z</time>
      </trkpt>
      <trkpt lat="43.49842" lon="6.92848">
        <ele>122</ele>
        <time>2011-11-11T16:14:43Z</time>
      </trkpt>
      <trkpt lat="43.49823" lon="6.92808">
        <ele>122</ele>
        <time>2011-11-11T16:14:53Z</time>
      </trkpt>
      <trkpt lat="43.49802" lon="6.92774">
        <ele>122</ele>
        <time>2011-11-11T16:15:03Z</time>
      </trkpt>
      <trkpt lat="43.49788" lon="6.92755">
        <ele>122</ele>
        <time>2011-11-11T16:15:13Z</time>
      </trkpt>
      <trkpt lat="43.49783" lon="6.92744">
        <ele>122</ele>
        <time>2011-11-11T16:15:26Z</time>
      </trkpt>
      <trkpt lat="43.49782" lon="6.92742">
        <ele>122</ele>
        <time>2011-11-11T16:15:40Z</time>
      </trkpt>
      <trkpt lat="43.49779" lon="6.92734">
        <ele>123</ele>
        <time>2011-11-11T16:15:50Z</time>
      </trkpt>
      <trkpt lat="43.49775" lon="6.92719">
        <ele>123</ele>
        <time>2011-11-11T16:16:00Z</time>
      </trkpt>
      <trkpt lat="43.49774" lon="6.92705">
        <ele>123</ele>
        <time>2011-11-11T16:16:11Z</time>
      </trkpt>
      <trkpt lat="43.49772" lon="6.92689">
        <ele>125</ele>
        <time>2011-11-11T16:16:22Z</time>
      </trkpt>
      <trkpt lat="43.49768" lon="6.92681">
        <ele>125</ele>
        <time>2011-11-11T16:16:32Z</time>
      </trkpt>
      <trkpt lat="43.49757" lon="6.92655">
        <ele>125</ele>
        <time>2011-11-11T16:16:42Z</time>
      </trkpt>
      <trkpt lat="43.4974" lon="6.92635">
        <ele>126</ele>
        <time>2011-11-11T16:16:52Z</time>
      </trkpt>
      <trkpt lat="43.49711" lon="6.92629">
        <ele>123</ele>
        <time>2011-11-11T16:17:02Z</time>
      </trkpt>
      <trkpt lat="43.49687" lon="6.92605">
        <ele>122</ele>
        <time>2011-11-11T16:17:12Z</time>
      </trkpt>
      <trkpt lat="43.49661" lon="6.92568">
        <ele>121</ele>
        <time>2011-11-11T16:17:22Z</time>
      </trkpt>
      <trkpt lat="43.49644" lon="6.92535">
        <ele>121</ele>
        <time>2011-11-11T16:17:32Z</time>
      </trkpt>
      <trkpt lat="43.49628" lon="6.92482">
        <ele>121</ele>
        <time>2011-11-11T16:17:42Z</time>
      </trkpt>
      <trkpt lat="43.49624" lon="6.9247">
        <ele>120</ele>
        <time>2011-11-11T16:17:53Z</time>
      </trkpt>
      <trkpt lat="43.49626" lon="6.92455">
        <ele>116</ele>
        <time>2011-11-11T16:18:04Z</time>
      </trkpt>
      <trkpt lat="43.49623" lon="6.92449">
        <ele>112</ele>
        <time>2011-11-11T16:18:15Z</time>
      </trkpt>
      <trkpt lat="43.49617" lon="6.92442">
        <ele>112</ele>
        <time>2011-11-11T16:18:26Z</time>
      </trkpt>
      <trkpt lat="43.49612" lon="6.92441">
        <ele>108</ele>
        <time>2011-11-11T16:18:36Z</time>
      </trkpt>
      <trkpt lat="43.49606" lon="6.92443">
        <ele>105</ele>
        <time>2011-11-11T16:18:49Z</time>
      </trkpt>
      <trkpt lat="43.49598" lon="6.92445">
        <ele>105</ele>
        <time>2011-11-11T16:19:00Z</time>
      </trkpt>
      <trkpt lat="43.49591" lon="6.92453">
        <ele>105</ele>
        <time>2011-11-11T16:19:11Z</time>
      </trkpt>
      <trkpt lat="43.49586" lon="6.92458">
        <ele>105</ele>
        <time>2011-11-11T16:19:23Z</time>
      </trkpt>
      <trkpt lat="43.4958" lon="6.92496">
        <ele>107</ele>
        <time>2011-11-11T16:19:33Z</time>
      </trkpt>
      <trkpt lat="43.49573" lon="6.92525">
        <ele>113</ele>
        <time>2011-11-11T16:19:46Z</time>
      </trkpt>
      <trkpt lat="43.49571" lon="6.92538">
        <ele>116</ele>
        <time>2011-11-11T16:19:56Z</time>
      </trkpt>
      <trkpt lat="43.49567" lon="6.92553">
        <ele>116</ele>
        <time>2011-11-11T16:20:06Z</time>
      </trkpt>
      <trkpt lat="43.49563" lon="6.9257">
        <ele>116</ele>
        <time>2011-11-11T16:20:16Z</time>
      </trkpt>
      <trkpt lat="43.49559" lon="6.92582">
        <ele>116</ele>
        <time>2011-11-11T16:20:26Z</time>
      </trkpt>
      <trkpt lat="43.49542" lon="6.92606">
        <ele>118</ele>
        <time>2011-11-11T16:20:36Z</time>
      </trkpt>
      <trkpt lat="43.49519" lon="6.92637">
        <ele>118</ele>
        <time>2011-11-11T16:20:46Z</time>
      </trkpt>
      <trkpt lat="43.49506" lon="6.92669">
        <ele>122</ele>
        <time>2011-11-11T16:20:56Z</time>
      </trkpt>
      <trkpt lat="43.495" lon="6.92702">
        <ele>122</ele>
        <time>2011-11-11T16:21:06Z</time>
      </trkpt>
      <trkpt lat="43.49487" lon="6.92783">
        <ele>116</ele>
        <time>2011-11-11T16:21:16Z</time>
      </trkpt>
      <trkpt lat="43.49488" lon="6.92796">
        <ele>112</ele>
        <time>2011-11-11T16:21:26Z</time>
      </trkpt>
      <trkpt lat="43.49489" lon="6.92799">
        <ele>112</ele>
        <time>2011-11-11T16:21:38Z</time>
      </trkpt>
      <trkpt lat="43.49489" lon="6.92797">
        <ele>112</ele>
        <time>2011-11-11T16:21:50Z</time>
      </trkpt>
      <trkpt lat="43.49488" lon="6.92788">
        <ele>110</ele>
        <time>2011-11-11T16:22:14Z</time>
      </trkpt>
      <trkpt lat="43.49491" lon="6.92788">
        <ele>108</ele>
        <time>2011-11-11T16:22:24Z</time>
      </trkpt>
      <trkpt lat="43.49512" lon="6.92826">
        <ele>104</ele>
        <time>2011-11-11T16:22:34Z</time>
      </trkpt>
      <trkpt lat="43.49544" lon="6.92856">
        <ele>97</ele>
        <time>2011-11-11T16:22:44Z</time>
      </trkpt>
      <trkpt lat="43.49579" lon="6.92888">
        <ele>89</ele>
        <time>2011-11-11T16:22:54Z</time>
      </trkpt>
      <trkpt lat="43.49598" lon="6.92922">
        <ele>85</ele>
        <time>2011-11-11T16:23:04Z</time>
      </trkpt>
      <trkpt lat="43.49613" lon="6.92943">
        <ele>80</ele>
        <time>2011-11-11T16:23:14Z</time>
      </trkpt>
      <trkpt lat="43.49645" lon="6.92956">
        <ele>75</ele>
        <time>2011-11-11T16:23:24Z</time>
      </trkpt>
      <trkpt lat="43.49669" lon="6.92973">
        <ele>69</ele>
        <time>2011-11-11T16:23:34Z</time>
      </trkpt>
      <trkpt lat="43.49687" lon="6.92997">
        <ele>68</ele>
        <time>2011-11-11T16:23:45Z</time>
      </trkpt>
      <trkpt lat="43.49693" lon="6.93001">
        <ele>68</ele>
        <time>2011-11-11T16:23:55Z</time>
      </trkpt>
      <trkpt lat="43.49709" lon="6.93024">
        <ele>68</ele>
        <time>2011-11-11T16:24:05Z</time>
      </trkpt>
      <trkpt lat="43.49714" lon="6.93065">
        <ele>67</ele>
        <time>2011-11-11T16:24:15Z</time>
      </trkpt>
      <trkpt lat="43.49699" lon="6.93124">
        <ele>61</ele>
        <time>2011-11-11T16:24:25Z</time>
      </trkpt>
      <trkpt lat="43.49673" lon="6.93184">
        <ele>55</ele>
        <time>2011-11-11T16:24:35Z</time>
      </trkpt>
      <trkpt lat="43.49676" lon="6.93198">
        <ele>52</ele>
        <time>2011-11-11T16:24:46Z</time>
      </trkpt>
      <trkpt lat="43.49678" lon="6.93206">
        <ele>51</ele>
        <time>2011-11-11T16:24:57Z</time>
      </trkpt>
      <trkpt lat="43.49677" lon="6.93215">
        <ele>49</ele>
        <time>2011-11-11T16:25:10Z</time>
      </trkpt>
      <trkpt lat="43.49679" lon="6.93221">
        <ele>49</ele>
        <time>2011-11-11T16:25:21Z</time>
      </trkpt>
      <trkpt lat="43.49678" lon="6.93224">
        <ele>51</ele>
        <time>2011-11-11T16:25:41Z</time>
      </trkpt>
      <trkpt lat="43.49679" lon="6.93226">
        <ele>51</ele>
        <time>2011-11-11T16:25:58Z</time>
      </trkpt>
      <trkpt lat="43.49678" lon="6.93226">
        <ele>51</ele>
        <time>2011-11-11T16:26:11Z</time>
      </trkpt>
      <trkpt lat="43.49677" lon="6.93228">
        <ele>46</ele>
        <time>2011-11-11T16:26:30Z</time>
      </trkpt>
      <trkpt lat="43.49675" lon="6.93232">
        <ele>46</ele>
        <time>2011-11-11T16:26:49Z</time>
      </trkpt>
      <trkpt lat="43.49676" lon="6.9323">
        <ele>45</ele>
        <time>2011-11-11T16:27:02Z</time>
      </trkpt>
      <trkpt lat="43.49677" lon="6.93228">
        <ele>45</ele>
        <time>2011-11-11T16:27:15Z</time>
      </trkpt>
      <trkpt lat="43.49679" lon="6.93235">
        <ele>44</ele>
        <time>2011-11-11T16:27:27Z</time>
      </trkpt>
      <trkpt lat="43.49674" lon="6.9324">
        <ele>43</ele>
        <time>2011-11-11T16:27:43Z</time>
      </trkpt>
      <trkpt lat="43.49674" lon="6.93245">
        <ele>41</ele>
        <time>2011-11-11T16:27:55Z</time>
      </trkpt>
      <trkpt lat="43.49671" lon="6.93281">
        <ele>40</ele>
        <time>2011-11-11T16:28:05Z</time>
      </trkpt>
      <trkpt lat="43.49662" lon="6.93324">
        <ele>40</ele>
        <time>2011-11-11T16:28:15Z</time>
      </trkpt>
      <trkpt lat="43.49667" lon="6.93353">
        <ele>40</ele>
        <time>2011-11-11T16:28:25Z</time>
      </trkpt>
      <trkpt lat="43.49675" lon="6.93379">
        <ele>38</ele>
        <time>2011-11-11T16:28:35Z</time>
      </trkpt>
      <trkpt lat="43.49683" lon="6.93392">
        <ele>37</ele>
        <time>2011-11-11T16:28:45Z</time>
      </trkpt>
      <trkpt lat="43.49692" lon="6.93406">
        <ele>37</ele>
        <time>2011-11-11T16:28:55Z</time>
      </trkpt>
      <trkpt lat="43.49702" lon="6.93443">
        <ele>37</ele>
        <time>2011-11-11T16:29:05Z</time>
      </trkpt>
      <trkpt lat="43.49708" lon="6.93486">
        <ele>32</ele>
        <time>2011-11-11T16:29:15Z</time>
      </trkpt>
      <trkpt lat="43.49698" lon="6.93512">
        <ele>26</ele>
        <time>2011-11-11T16:29:25Z</time>
      </trkpt>
      <trkpt lat="43.49685" lon="6.93543">
        <ele>25</ele>
        <time>2011-11-11T16:29:35Z</time>
      </trkpt>
      <trkpt lat="43.49687" lon="6.9355">
        <ele>26</ele>
        <time>2011-11-11T16:29:45Z</time>
      </trkpt>
      <trkpt lat="43.49688" lon="6.93549">
        <ele>27</ele>
        <time>2011-11-11T16:29:55Z</time>
      </trkpt>
      <trkpt lat="43.49686" lon="6.93552">
        <ele>28</ele>
        <time>2011-11-11T16:30:12Z</time>
      </trkpt>
      <trkpt lat="43.49687" lon="6.93553">
        <ele>28</ele>
        <time>2011-11-11T16:30:23Z</time>
      </trkpt>
      <trkpt lat="43.49689" lon="6.93554">
        <ele>31</ele>
        <time>2011-11-11T16:30:29Z</time>
      </trkpt>
      <trkpt lat="43.4969" lon="6.93552">
        <ele>31</ele>
        <time>2011-11-11T16:30:40Z</time>
      </trkpt>
      <trkpt lat="43.49712" lon="6.93542">
        <ele>31</ele>
        <time>2011-11-11T16:30:50Z</time>
      </trkpt>
      <trkpt lat="43.49745" lon="6.93551">
        <ele>32</ele>
        <time>2011-11-11T16:31:00Z</time>
      </trkpt>
      <trkpt lat="43.49787" lon="6.93576">
        <ele>31</ele>
        <time>2011-11-11T16:31:10Z</time>
      </trkpt>
      <trkpt lat="43.49817" lon="6.93597">
        <ele>21</ele>
        <time>2011-11-11T16:31:20Z</time>
      </trkpt>
      <trkpt lat="43.49839" lon="6.93621">
        <ele>18</ele>
        <time>2011-11-11T16:31:30Z</time>
      </trkpt>
      <trkpt lat="43.49873" lon="6.93633">
        <ele>18</ele>
        <time>2011-11-11T16:31:40Z</time>
      </trkpt>
      <trkpt lat="43.49886" lon="6.93638">
        <ele>16</ele>
        <time>2011-11-11T16:31:51Z</time>
      </trkpt>
      <trkpt lat="43.49894" lon="6.93641">
        <ele>16</ele>
        <time>2011-11-11T16:32:02Z</time>
      </trkpt>
      <trkpt lat="43.49897" lon="6.9364">
        <ele>12</ele>
        <time>2011-11-11T16:32:13Z</time>
      </trkpt>
      <trkpt lat="43.49901" lon="6.93644">
        <ele>9</ele>
        <time>2011-11-11T16:32:34Z</time>
      </trkpt>
      <trkpt lat="43.49925" lon="6.9364">
        <ele>9</ele>
        <time>2011-11-11T16:32:44Z</time>
      </trkpt>
      <trkpt lat="43.49956" lon="6.93655">
        <ele>9</ele>
        <time>2011-11-11T16:32:54Z</time>
      </trkpt>
      <trkpt lat="43.49991" lon="6.93681">
        <ele>9</ele>
        <time>2011-11-11T16:33:04Z</time>
      </trkpt>
      <trkpt lat="43.50004" lon="6.93693">
        <ele>3</ele>
        <time>2011-11-11T16:33:14Z</time>
      </trkpt>
      <trkpt lat="43.50006" lon="6.93695">
        <ele>30.3</ele>
        <time>2011-11-11T16:33:28Z</time>
      </trkpt>
      <trkpt lat="43.50008" lon="6.93697">
        <ele>30.7</ele>
        <time>2011-11-11T16:33:40Z</time>
      </trkpt>
      <trkpt lat="43.50014" lon="6.93695">
        <ele>29.3</ele>
        <time>2011-11-11T16:33:52Z</time>
      </trkpt>
      <trkpt lat="43.50043" lon="6.93701">
        <ele>28.3</ele>
        <time>2011-11-11T16:34:02Z</time>
      </trkpt>
      <trkpt lat="43.50088" lon="6.937">
        <ele>28.5</ele>
        <time>2011-11-11T16:34:13Z</time>
      </trkpt>
      <trkpt lat="43.50126" lon="6.93707">
        <ele>10</ele>
        <time>2011-11-11T16:34:23Z</time>
      </trkpt>
      <trkpt lat="43.50179" lon="6.93708">
        <ele>23</ele>
        <time>2011-11-11T16:34:33Z</time>
      </trkpt>
      <trkpt lat="43.50234" lon="6.93695">
        <ele>26</ele>
        <time>2011-11-11T16:34:43Z</time>
      </trkpt>
      <trkpt lat="43.50284" lon="6.93682">
        <ele>27</ele>
        <time>2011-11-11T16:34:53Z</time>
      </trkpt>
      <trkpt lat="43.50319" lon="6.93707">
        <ele>17</ele>
        <time>2011-11-11T16:35:03Z</time>
      </trkpt>
      <trkpt lat="43.50338" lon="6.9372">
        <ele>17.9</ele>
        <time>2011-11-11T16:35:13Z</time>
      </trkpt>
      <trkpt lat="43.50347" lon="6.93716">
        <ele>-12</ele>
        <time>2011-11-11T16:35:23Z</time>
      </trkpt>
      <trkpt lat="43.50372" lon="6.93729">
        <ele>-24</ele>
        <time>2011-11-11T16:35:33Z</time>
      </trkpt>
      <trkpt lat="43.50382" lon="6.93738">
        <ele>-28</ele>
        <time>2011-11-11T16:35:43Z</time>
      </trkpt>
      <trkpt lat="43.50382" lon="6.93745">
        <ele>-27</ele>
        <time>2011-11-11T16:35:54Z</time>
      </trkpt>
      <trkpt lat="43.50381" lon="6.93745">
        <ele>-22</ele>
        <time>2011-11-11T16:36:19Z</time>
      </trkpt>
      <trkpt lat="43.5038" lon="6.93745">
        <ele>-28</ele>
        <time>2011-11-11T16:36:37Z</time>
      </trkpt>
      <trkpt lat="43.50379" lon="6.93748">
        <ele>-28</ele>
        <time>2011-11-11T16:36:54Z</time>
      </trkpt>
      <trkpt lat="43.5038" lon="6.93747">
        <ele>-27</ele>
        <time>2011-11-11T16:37:06Z</time>
      </trkpt>
      <trkpt lat="43.50381" lon="6.93742">
        <ele>-27</ele>
        <time>2011-11-11T16:37:20Z</time>
      </trkpt>
      <trkpt lat="43.50381" lon="6.93739">
        <ele>-25</ele>
        <time>2011-11-11T16:37:36Z</time>
      </trkpt>
      <trkpt lat="43.50385" lon="6.93738">
        <ele>-15</ele>
        <time>2011-11-11T16:37:47Z</time>
      </trkpt>
      <trkpt lat="43.50383" lon="6.93739">
        <ele>-13</ele>
        <time>2011-11-11T16:37:59Z</time>
      </trkpt>
      <trkpt lat="43.50398" lon="6.93756">
        <ele>-10</ele>
        <time>2011-11-11T16:38:09Z</time>
      </trkpt>
      <trkpt lat="43.5041" lon="6.93789">
        <ele>-2</ele>
        <time>2011-11-11T16:38:19Z</time>
      </trkpt>
      <trkpt lat="43.50431" lon="6.93822">
        <ele>13.4</ele>
        <time>2011-11-11T16:38:29Z</time>
      </trkpt>
      <trkpt lat="43.50459" lon="6.93847">
        <ele>9.9</ele>
        <time>2011-11-11T16:38:39Z</time>
      </trkpt>
      <trkpt lat="43.50508" lon="6.93868">
        <ele>8</ele>
        <time>2011-11-11T16:38:49Z</time>
      </trkpt>
      <trkpt lat="43.50552" lon="6.93899">
        <ele>-4</ele>
        <time>2011-11-11T16:38:59Z</time>
      </trkpt>
      <trkpt lat="43.50583" lon="6.93947">
        <ele>-15</ele>
        <time>2011-11-11T16:39:09Z</time>
      </trkpt>
      <trkpt lat="43.50611" lon="6.93973">
        <ele>-15</ele>
        <time>2011-11-11T16:39:19Z</time>
      </trkpt>
      <trkpt lat="43.50623" lon="6.94008">
        <ele>-15</ele>
        <time>2011-11-11T16:39:29Z</time>
      </trkpt>
      <trkpt lat="43.50644" lon="6.94036">
        <ele>-13</ele>
        <time>2011-11-11T16:39:39Z</time>
      </trkpt>
      <trkpt lat="43.50666" lon="6.94067">
        <ele>-13</ele>
        <time>2011-11-11T16:39:49Z</time>
      </trkpt>
      <trkpt lat="43.50683" lon="6.94096">
        <ele>-13</ele>
        <time>2011-11-11T16:39:59Z</time>
      </trkpt>
      <trkpt lat="43.50692" lon="6.94107">
        <ele>-10</ele>
        <time>2011-11-11T16:40:10Z</time>
      </trkpt>
      <trkpt lat="43.50697" lon="6.94111">
        <ele>-10</ele>
        <time>2011-11-11T16:40:24Z</time>
      </trkpt>
      <trkpt lat="43.50697" lon="6.94119">
        <ele>-10</ele>
        <time>2011-11-11T16:40:35Z</time>
      </trkpt>
      <trkpt lat="43.50697" lon="6.94126">
        <ele>-14</ele>
        <time>2011-11-11T16:40:49Z</time>
      </trkpt>
      <trkpt lat="43.50712" lon="6.94145">
        <ele>-14</ele>
        <time>2011-11-11T16:40:59Z</time>
      </trkpt>
      <trkpt lat="43.50733" lon="6.94163">
        <ele>-7</ele>
        <time>2011-11-11T16:41:10Z</time>
      </trkpt>
      <trkpt lat="43.50735" lon="6.94172">
        <ele>-3</ele>
        <time>2011-11-11T16:41:21Z</time>
      </trkpt>
      <trkpt lat="43.50735" lon="6.94172">
        <ele>-2</ele>
        <time>2011-11-11T16:41:33Z</time>
      </trkpt>
      <trkpt lat="43.50736" lon="6.94176">
        <ele>-2</ele>
        <time>2011-11-11T16:41:43Z</time>
      </trkpt>
      <trkpt lat="43.50737" lon="6.94177">
        <ele>-2</ele>
        <time>2011-11-11T16:41:56Z</time>
      </trkpt>
      <trkpt lat="43.50747" lon="6.94165">
        <ele>-1</ele>
        <time>2011-11-11T16:42:06Z</time>
      </trkpt>
      <trkpt lat="43.50754" lon="6.94145">
        <ele>-4</ele>
        <time>2011-11-11T16:42:18Z</time>
      </trkpt>
      <trkpt lat="43.50757" lon="6.94135">
        <ele>-7</ele>
        <time>2011-11-11T16:42:29Z</time>
      </trkpt>
      <trkpt lat="43.50757" lon="6.94131">
        <ele>-9</ele>
        <time>2011-11-11T16:42:39Z</time>
      </trkpt>
      <trkpt lat="43.50754" lon="6.94124">
        <ele>-9</ele>
        <time>2011-11-11T16:42:51Z</time>
      </trkpt>
      <trkpt lat="43.50758" lon="6.94117">
        <ele>-6</ele>
        <time>2011-11-11T16:43:01Z</time>
      </trkpt>
      <trkpt lat="43.50757" lon="6.94116">
        <ele>7.3</ele>
        <time>2011-11-11T16:43:16Z</time>
      </trkpt>
      <trkpt lat="43.50757" lon="6.94119">
        <ele>7</ele>
        <time>2011-11-11T16:43:28Z</time>
      </trkpt>
      <trkpt lat="43.50755" lon="6.94121">
        <ele>6.5</ele>
        <time>2011-11-11T16:43:39Z</time>
      </trkpt>
      <trkpt lat="43.50753" lon="6.94119">
        <ele>6.5</ele>
        <time>2011-11-11T16:43:56Z</time>
      </trkpt>
      <trkpt lat="43.50754" lon="6.9412">
        <ele>6.4</ele>
        <time>2011-11-11T16:44:00Z</time>
      </trkpt>
    </trkseg>
  </trk>
</gpx>